<?xml version="1.0" encoding="UTF-8" standalone="no" ?>
<gpx xmlns="http://www.topografix.com/GPX/1/1" xmlns:xsi="http://www.w3.org/2001/XMLSchema-instance" xsi:schemaLocation="http://www.topografix.com/GPX/1/1 http://www.topografix.com/GPX/1/1/gpx.xsd" version="1.1" creator="VisuGPX - https://www.visugpx.com">
  <metadata>
    <name>Mourré d\'Agnis</name>
    <desc><![CDATA[montée par le vallon d\'Agnis retour via La Verguine et le Jas de Marrou]]></desc>
  </metadata>
  <trk>
    <name><![CDATA[2012-05-13 Mourré d'Agnis]]></name>
    <trkseg>
      <trkpt lat="43.29022" lon="5.9298">
        <ele>336.59887695312</ele>
        <time>2012-05-13T07:11:39Z</time>
      </trkpt>
      <trkpt lat="43.29022" lon="5.9298">
        <ele>336.59887695312</ele>
        <time>2012-05-13T07:11:41Z</time>
      </trkpt>
      <trkpt lat="43.29022" lon="5.9298">
        <ele>336.59887695312</ele>
        <time>2012-05-13T07:11:42Z</time>
      </trkpt>
      <trkpt lat="43.29025" lon="5.92979">
        <ele>339.48266601562</ele>
        <time>2012-05-13T07:11:59Z</time>
      </trkpt>
      <trkpt lat="43.29027" lon="5.92978">
        <ele>337.56005859375</ele>
        <time>2012-05-13T07:12:02Z</time>
      </trkpt>
      <trkpt lat="43.29024" lon="5.92982">
        <ele>340.92468261719</ele>
        <time>2012-05-13T07:13:50Z</time>
      </trkpt>
      <trkpt lat="43.29023" lon="5.92982">
        <ele>339.96337890625</ele>
        <time>2012-05-13T07:14:09Z</time>
      </trkpt>
      <trkpt lat="43.29022" lon="5.92982">
        <ele>341.4052734375</ele>
        <time>2012-05-13T07:14:24Z</time>
      </trkpt>
      <trkpt lat="43.29033" lon="5.92979">
        <ele>344.28942871094</ele>
        <time>2012-05-13T07:15:30Z</time>
      </trkpt>
      <trkpt lat="43.29032" lon="5.92979">
        <ele>347.17321777344</ele>
        <time>2012-05-13T07:16:23Z</time>
      </trkpt>
      <trkpt lat="43.29033" lon="5.92979">
        <ele>349.09582519531</ele>
        <time>2012-05-13T07:17:05Z</time>
      </trkpt>
      <trkpt lat="43.29033" lon="5.92987">
        <ele>350.05725097656</ele>
        <time>2012-05-13T07:17:09Z</time>
      </trkpt>
      <trkpt lat="43.29015" lon="5.93026">
        <ele>353.421875</ele>
        <time>2012-05-13T07:17:26Z</time>
      </trkpt>
      <trkpt lat="43.29006" lon="5.93047">
        <ele>355.34448242188</ele>
        <time>2012-05-13T07:17:36Z</time>
      </trkpt>
      <trkpt lat="43.2901" lon="5.93051">
        <ele>356.30578613281</ele>
        <time>2012-05-13T07:17:40Z</time>
      </trkpt>
      <trkpt lat="43.29025" lon="5.93047">
        <ele>359.67041015625</ele>
        <time>2012-05-13T07:17:52Z</time>
      </trkpt>
      <trkpt lat="43.29034" lon="5.93049">
        <ele>361.11242675781</ele>
        <time>2012-05-13T07:18:06Z</time>
      </trkpt>
      <trkpt lat="43.29039" lon="5.9305">
        <ele>363.03503417969</ele>
        <time>2012-05-13T07:18:17Z</time>
      </trkpt>
      <trkpt lat="43.29059" lon="5.93058">
        <ele>365.9189453125</ele>
        <time>2012-05-13T07:18:32Z</time>
      </trkpt>
      <trkpt lat="43.29082" lon="5.93063">
        <ele>368.322265625</ele>
        <time>2012-05-13T07:18:48Z</time>
      </trkpt>
      <trkpt lat="43.29105" lon="5.93064">
        <ele>370.7255859375</ele>
        <time>2012-05-13T07:19:04Z</time>
      </trkpt>
      <trkpt lat="43.29125" lon="5.93072">
        <ele>373.12890625</ele>
        <time>2012-05-13T07:19:19Z</time>
      </trkpt>
      <trkpt lat="43.29139" lon="5.931">
        <ele>376.01281738281</ele>
        <time>2012-05-13T07:19:33Z</time>
      </trkpt>
      <trkpt lat="43.29154" lon="5.93119">
        <ele>375.05151367188</ele>
        <time>2012-05-13T07:19:45Z</time>
      </trkpt>
      <trkpt lat="43.29156" lon="5.9312">
        <ele>375.05151367188</ele>
        <time>2012-05-13T07:19:46Z</time>
      </trkpt>
      <trkpt lat="43.29168" lon="5.93119">
        <ele>378.89685058594</ele>
        <time>2012-05-13T07:19:53Z</time>
      </trkpt>
      <trkpt lat="43.29184" lon="5.93123">
        <ele>381.78063964844</ele>
        <time>2012-05-13T07:20:05Z</time>
      </trkpt>
      <trkpt lat="43.29185" lon="5.93124">
        <ele>382.26135253906</ele>
        <time>2012-05-13T07:20:06Z</time>
      </trkpt>
      <trkpt lat="43.29191" lon="5.93126">
        <ele>383.70324707031</ele>
        <time>2012-05-13T07:20:10Z</time>
      </trkpt>
      <trkpt lat="43.29211" lon="5.93133">
        <ele>386.58740234375</ele>
        <time>2012-05-13T07:20:26Z</time>
      </trkpt>
      <trkpt lat="43.29219" lon="5.93152">
        <ele>388.51000976562</ele>
        <time>2012-05-13T07:20:38Z</time>
      </trkpt>
      <trkpt lat="43.29222" lon="5.93155">
        <ele>388.029296875</ele>
        <time>2012-05-13T07:20:40Z</time>
      </trkpt>
      <trkpt lat="43.29243" lon="5.93159">
        <ele>388.029296875</ele>
        <time>2012-05-13T07:20:50Z</time>
      </trkpt>
      <trkpt lat="43.29275" lon="5.93147">
        <ele>389.95190429688</ele>
        <time>2012-05-13T07:21:06Z</time>
      </trkpt>
      <trkpt lat="43.29301" lon="5.93145">
        <ele>392.8359375</ele>
        <time>2012-05-13T07:21:21Z</time>
      </trkpt>
      <trkpt lat="43.29307" lon="5.93146">
        <ele>394.27795410156</ele>
        <time>2012-05-13T07:21:24Z</time>
      </trkpt>
      <trkpt lat="43.29318" lon="5.93145">
        <ele>396.68115234375</ele>
        <time>2012-05-13T07:21:31Z</time>
      </trkpt>
      <trkpt lat="43.29326" lon="5.93145">
        <ele>398.12316894531</ele>
        <time>2012-05-13T07:21:42Z</time>
      </trkpt>
      <trkpt lat="43.29329" lon="5.93145">
        <ele>398.12316894531</ele>
        <time>2012-05-13T07:21:47Z</time>
      </trkpt>
      <trkpt lat="43.29348" lon="5.93157">
        <ele>401.00708007812</ele>
        <time>2012-05-13T07:21:58Z</time>
      </trkpt>
      <trkpt lat="43.29382" lon="5.93154">
        <ele>404.37170410156</ele>
        <time>2012-05-13T07:22:13Z</time>
      </trkpt>
      <trkpt lat="43.29406" lon="5.93147">
        <ele>406.29431152344</ele>
        <time>2012-05-13T07:22:27Z</time>
      </trkpt>
      <trkpt lat="43.29439" lon="5.93158">
        <ele>405.3330078125</ele>
        <time>2012-05-13T07:22:41Z</time>
      </trkpt>
      <trkpt lat="43.29477" lon="5.93147">
        <ele>406.77490234375</ele>
        <time>2012-05-13T07:22:53Z</time>
      </trkpt>
      <trkpt lat="43.29494" lon="5.93141">
        <ele>409.17834472656</ele>
        <time>2012-05-13T07:23:03Z</time>
      </trkpt>
      <trkpt lat="43.29509" lon="5.93135">
        <ele>412.06225585938</ele>
        <time>2012-05-13T07:23:13Z</time>
      </trkpt>
      <trkpt lat="43.29528" lon="5.93122">
        <ele>415.42687988281</ele>
        <time>2012-05-13T07:23:26Z</time>
      </trkpt>
      <trkpt lat="43.29541" lon="5.93113">
        <ele>418.31079101562</ele>
        <time>2012-05-13T07:23:38Z</time>
      </trkpt>
      <trkpt lat="43.29554" lon="5.93109">
        <ele>421.19482421875</ele>
        <time>2012-05-13T07:23:48Z</time>
      </trkpt>
      <trkpt lat="43.29559" lon="5.93108">
        <ele>422.15600585938</ele>
        <time>2012-05-13T07:23:51Z</time>
      </trkpt>
      <trkpt lat="43.29572" lon="5.93102">
        <ele>425.04016113281</ele>
        <time>2012-05-13T07:24:03Z</time>
      </trkpt>
      <trkpt lat="43.29584" lon="5.93097">
        <ele>427.443359375</ele>
        <time>2012-05-13T07:24:19Z</time>
      </trkpt>
      <trkpt lat="43.29592" lon="5.93096">
        <ele>429.36596679688</ele>
        <time>2012-05-13T07:24:35Z</time>
      </trkpt>
      <trkpt lat="43.29601" lon="5.93095">
        <ele>430.32727050781</ele>
        <time>2012-05-13T07:24:48Z</time>
      </trkpt>
      <trkpt lat="43.29615" lon="5.931">
        <ele>433.69189453125</ele>
        <time>2012-05-13T07:24:58Z</time>
      </trkpt>
      <trkpt lat="43.2964" lon="5.93098">
        <ele>436.09521484375</ele>
        <time>2012-05-13T07:25:13Z</time>
      </trkpt>
      <trkpt lat="43.29667" lon="5.93086">
        <ele>439.45971679688</ele>
        <time>2012-05-13T07:25:28Z</time>
      </trkpt>
      <trkpt lat="43.29694" lon="5.93071">
        <ele>442.34387207031</ele>
        <time>2012-05-13T07:25:45Z</time>
      </trkpt>
      <trkpt lat="43.29715" lon="5.93066">
        <ele>445.22766113281</ele>
        <time>2012-05-13T07:25:59Z</time>
      </trkpt>
      <trkpt lat="43.2972" lon="5.93062">
        <ele>445.70837402344</ele>
        <time>2012-05-13T07:26:03Z</time>
      </trkpt>
      <trkpt lat="43.29739" lon="5.93051">
        <ele>449.5537109375</ele>
        <time>2012-05-13T07:26:18Z</time>
      </trkpt>
      <trkpt lat="43.29758" lon="5.93044">
        <ele>452.91821289062</ele>
        <time>2012-05-13T07:26:32Z</time>
      </trkpt>
      <trkpt lat="43.29779" lon="5.93037">
        <ele>455.80224609375</ele>
        <time>2012-05-13T07:26:50Z</time>
      </trkpt>
      <trkpt lat="43.29798" lon="5.93031">
        <ele>459.16687011719</ele>
        <time>2012-05-13T07:27:06Z</time>
      </trkpt>
      <trkpt lat="43.29818" lon="5.9303">
        <ele>462.05078125</ele>
        <time>2012-05-13T07:27:19Z</time>
      </trkpt>
      <trkpt lat="43.29843" lon="5.93018">
        <ele>463.49279785156</ele>
        <time>2012-05-13T07:27:34Z</time>
      </trkpt>
      <trkpt lat="43.29862" lon="5.93">
        <ele>465.89611816406</ele>
        <time>2012-05-13T07:27:48Z</time>
      </trkpt>
      <trkpt lat="43.29867" lon="5.92978">
        <ele>468.29931640625</ele>
        <time>2012-05-13T07:27:59Z</time>
      </trkpt>
      <trkpt lat="43.2988" lon="5.92959">
        <ele>471.18334960938</ele>
        <time>2012-05-13T07:28:12Z</time>
      </trkpt>
      <trkpt lat="43.29893" lon="5.92947">
        <ele>475.02868652344</ele>
        <time>2012-05-13T07:28:23Z</time>
      </trkpt>
      <trkpt lat="43.29905" lon="5.92941">
        <ele>476.95129394531</ele>
        <time>2012-05-13T07:28:32Z</time>
      </trkpt>
      <trkpt lat="43.29927" lon="5.92935">
        <ele>480.31591796875</ele>
        <time>2012-05-13T07:28:51Z</time>
      </trkpt>
      <trkpt lat="43.29945" lon="5.92936">
        <ele>482.23852539062</ele>
        <time>2012-05-13T07:29:03Z</time>
      </trkpt>
      <trkpt lat="43.29956" lon="5.92931">
        <ele>484.64184570312</ele>
        <time>2012-05-13T07:29:10Z</time>
      </trkpt>
      <trkpt lat="43.29962" lon="5.9293">
        <ele>485.60302734375</ele>
        <time>2012-05-13T07:29:14Z</time>
      </trkpt>
      <trkpt lat="43.29978" lon="5.92927">
        <ele>488.9677734375</ele>
        <time>2012-05-13T07:29:25Z</time>
      </trkpt>
      <trkpt lat="43.29993" lon="5.92921">
        <ele>491.85168457031</ele>
        <time>2012-05-13T07:29:37Z</time>
      </trkpt>
      <trkpt lat="43.30004" lon="5.92915">
        <ele>494.73559570312</ele>
        <time>2012-05-13T07:29:53Z</time>
      </trkpt>
      <trkpt lat="43.30016" lon="5.92908">
        <ele>497.13891601562</ele>
        <time>2012-05-13T07:30:04Z</time>
      </trkpt>
      <trkpt lat="43.30038" lon="5.92897">
        <ele>500.50354003906</ele>
        <time>2012-05-13T07:30:22Z</time>
      </trkpt>
      <trkpt lat="43.3005" lon="5.92894">
        <ele>502.42614746094</ele>
        <time>2012-05-13T07:30:32Z</time>
      </trkpt>
      <trkpt lat="43.30071" lon="5.92885">
        <ele>506.271484375</ele>
        <time>2012-05-13T07:30:51Z</time>
      </trkpt>
      <trkpt lat="43.30082" lon="5.92868">
        <ele>509.15539550781</ele>
        <time>2012-05-13T07:31:06Z</time>
      </trkpt>
      <trkpt lat="43.30091" lon="5.92856">
        <ele>510.59729003906</ele>
        <time>2012-05-13T07:31:17Z</time>
      </trkpt>
      <trkpt lat="43.30094" lon="5.92848">
        <ele>512.52001953125</ele>
        <time>2012-05-13T07:31:38Z</time>
      </trkpt>
      <trkpt lat="43.30101" lon="5.92827">
        <ele>513.96203613281</ele>
        <time>2012-05-13T07:31:50Z</time>
      </trkpt>
      <trkpt lat="43.30106" lon="5.92785">
        <ele>516.365234375</ele>
        <time>2012-05-13T07:32:10Z</time>
      </trkpt>
      <trkpt lat="43.30117" lon="5.92747">
        <ele>519.24926757812</ele>
        <time>2012-05-13T07:32:29Z</time>
      </trkpt>
      <trkpt lat="43.30137" lon="5.92725">
        <ele>522.61389160156</ele>
        <time>2012-05-13T07:32:46Z</time>
      </trkpt>
      <trkpt lat="43.30156" lon="5.92702">
        <ele>525.97839355469</ele>
        <time>2012-05-13T07:33:04Z</time>
      </trkpt>
      <trkpt lat="43.30158" lon="5.92689">
        <ele>527.42041015625</ele>
        <time>2012-05-13T07:33:10Z</time>
      </trkpt>
      <trkpt lat="43.30166" lon="5.92674">
        <ele>530.30444335938</ele>
        <time>2012-05-13T07:33:24Z</time>
      </trkpt>
      <trkpt lat="43.30171" lon="5.92666">
        <ele>531.26574707031</ele>
        <time>2012-05-13T07:33:32Z</time>
      </trkpt>
      <trkpt lat="43.30173" lon="5.9266">
        <ele>532.70776367188</ele>
        <time>2012-05-13T07:33:40Z</time>
      </trkpt>
      <trkpt lat="43.30189" lon="5.92632">
        <ele>535.11096191406</ele>
        <time>2012-05-13T07:33:57Z</time>
      </trkpt>
      <trkpt lat="43.30198" lon="5.92615">
        <ele>537.03369140625</ele>
        <time>2012-05-13T07:34:09Z</time>
      </trkpt>
      <trkpt lat="43.30217" lon="5.92586">
        <ele>540.39831542969</ele>
        <time>2012-05-13T07:34:29Z</time>
      </trkpt>
      <trkpt lat="43.30225" lon="5.92575">
        <ele>541.35949707031</ele>
        <time>2012-05-13T07:34:36Z</time>
      </trkpt>
      <trkpt lat="43.30243" lon="5.92553">
        <ele>541.84020996094</ele>
        <time>2012-05-13T07:34:49Z</time>
      </trkpt>
      <trkpt lat="43.30259" lon="5.9253">
        <ele>545.20483398438</ele>
        <time>2012-05-13T07:35:03Z</time>
      </trkpt>
      <trkpt lat="43.30279" lon="5.92487">
        <ele>547.12744140625</ele>
        <time>2012-05-13T07:35:24Z</time>
      </trkpt>
      <trkpt lat="43.30307" lon="5.92461">
        <ele>549.53076171875</ele>
        <time>2012-05-13T07:35:43Z</time>
      </trkpt>
      <trkpt lat="43.30325" lon="5.92449">
        <ele>551.93408203125</ele>
        <time>2012-05-13T07:35:56Z</time>
      </trkpt>
      <trkpt lat="43.3035" lon="5.9244">
        <ele>553.85668945312</ele>
        <time>2012-05-13T07:36:11Z</time>
      </trkpt>
      <trkpt lat="43.30379" lon="5.92437">
        <ele>557.22143554688</ele>
        <time>2012-05-13T07:36:29Z</time>
      </trkpt>
      <trkpt lat="43.30398" lon="5.92434">
        <ele>560.10522460938</ele>
        <time>2012-05-13T07:36:43Z</time>
      </trkpt>
      <trkpt lat="43.30414" lon="5.92424">
        <ele>562.50854492188</ele>
        <time>2012-05-13T07:36:57Z</time>
      </trkpt>
      <trkpt lat="43.30432" lon="5.92417">
        <ele>563.46997070312</ele>
        <time>2012-05-13T07:37:10Z</time>
      </trkpt>
      <trkpt lat="43.30439" lon="5.92404">
        <ele>567.31518554688</ele>
        <time>2012-05-13T07:37:19Z</time>
      </trkpt>
      <trkpt lat="43.30443" lon="5.92399">
        <ele>568.2763671875</ele>
        <time>2012-05-13T07:37:23Z</time>
      </trkpt>
      <trkpt lat="43.30449" lon="5.92384">
        <ele>570.19897460938</ele>
        <time>2012-05-13T07:37:33Z</time>
      </trkpt>
      <trkpt lat="43.30464" lon="5.92358">
        <ele>573.56396484375</ele>
        <time>2012-05-13T07:37:52Z</time>
      </trkpt>
      <trkpt lat="43.30466" lon="5.92355">
        <ele>574.52514648438</ele>
        <time>2012-05-13T07:37:54Z</time>
      </trkpt>
      <trkpt lat="43.30478" lon="5.92324">
        <ele>576.92846679688</ele>
        <time>2012-05-13T07:38:16Z</time>
      </trkpt>
      <trkpt lat="43.30479" lon="5.92322">
        <ele>576.92846679688</ele>
        <time>2012-05-13T07:38:17Z</time>
      </trkpt>
      <trkpt lat="43.30487" lon="5.92307">
        <ele>579.33154296875</ele>
        <time>2012-05-13T07:38:27Z</time>
      </trkpt>
      <trkpt lat="43.305" lon="5.92267">
        <ele>582.6962890625</ele>
        <time>2012-05-13T07:38:50Z</time>
      </trkpt>
      <trkpt lat="43.305" lon="5.92266">
        <ele>583.1767578125</ele>
        <time>2012-05-13T07:38:51Z</time>
      </trkpt>
      <trkpt lat="43.30519" lon="5.92222">
        <ele>584.61889648438</ele>
        <time>2012-05-13T07:39:15Z</time>
      </trkpt>
      <trkpt lat="43.30528" lon="5.92178">
        <ele>587.9833984375</ele>
        <time>2012-05-13T07:39:35Z</time>
      </trkpt>
      <trkpt lat="43.30528" lon="5.92174">
        <ele>587.50268554688</ele>
        <time>2012-05-13T07:39:37Z</time>
      </trkpt>
      <trkpt lat="43.30529" lon="5.92132">
        <ele>589.90625</ele>
        <time>2012-05-13T07:39:55Z</time>
      </trkpt>
      <trkpt lat="43.3053" lon="5.92118">
        <ele>590.86743164062</ele>
        <time>2012-05-13T07:40:03Z</time>
      </trkpt>
      <trkpt lat="43.30531" lon="5.92104">
        <ele>591.82885742188</ele>
        <time>2012-05-13T07:40:16Z</time>
      </trkpt>
      <trkpt lat="43.30538" lon="5.92073">
        <ele>595.193359375</ele>
        <time>2012-05-13T07:40:31Z</time>
      </trkpt>
      <trkpt lat="43.30535" lon="5.92044">
        <ele>598.07739257812</ele>
        <time>2012-05-13T07:40:47Z</time>
      </trkpt>
      <trkpt lat="43.30531" lon="5.92026">
        <ele>601.44189453125</ele>
        <time>2012-05-13T07:40:58Z</time>
      </trkpt>
      <trkpt lat="43.3053" lon="5.92016">
        <ele>602.40307617188</ele>
        <time>2012-05-13T07:41:04Z</time>
      </trkpt>
      <trkpt lat="43.30545" lon="5.91982">
        <ele>602.8837890625</ele>
        <time>2012-05-13T07:41:25Z</time>
      </trkpt>
      <trkpt lat="43.30559" lon="5.91944">
        <ele>604.326171875</ele>
        <time>2012-05-13T07:41:44Z</time>
      </trkpt>
      <trkpt lat="43.30563" lon="5.91926">
        <ele>607.69067382812</ele>
        <time>2012-05-13T07:41:53Z</time>
      </trkpt>
      <trkpt lat="43.30564" lon="5.91924">
        <ele>608.17138671875</ele>
        <time>2012-05-13T07:41:54Z</time>
      </trkpt>
      <trkpt lat="43.30566" lon="5.9189">
        <ele>611.05517578125</ele>
        <time>2012-05-13T07:42:11Z</time>
      </trkpt>
      <trkpt lat="43.30561" lon="5.91872">
        <ele>614.41967773438</ele>
        <time>2012-05-13T07:42:20Z</time>
      </trkpt>
      <trkpt lat="43.30562" lon="5.91842">
        <ele>617.3037109375</ele>
        <time>2012-05-13T07:42:38Z</time>
      </trkpt>
      <trkpt lat="43.30558" lon="5.91812">
        <ele>620.66845703125</ele>
        <time>2012-05-13T07:42:56Z</time>
      </trkpt>
      <trkpt lat="43.30552" lon="5.91796">
        <ele>622.1103515625</ele>
        <time>2012-05-13T07:43:07Z</time>
      </trkpt>
      <trkpt lat="43.30554" lon="5.91786">
        <ele>623.07177734375</ele>
        <time>2012-05-13T07:43:13Z</time>
      </trkpt>
      <trkpt lat="43.30587" lon="5.91773">
        <ele>623.07177734375</ele>
        <time>2012-05-13T07:43:35Z</time>
      </trkpt>
      <trkpt lat="43.30603" lon="5.91759">
        <ele>622.59106445312</ele>
        <time>2012-05-13T07:43:42Z</time>
      </trkpt>
      <trkpt lat="43.30613" lon="5.91736">
        <ele>625.47485351562</ele>
        <time>2012-05-13T07:43:53Z</time>
      </trkpt>
      <trkpt lat="43.30618" lon="5.91726">
        <ele>625.95556640625</ele>
        <time>2012-05-13T07:43:58Z</time>
      </trkpt>
      <trkpt lat="43.30629" lon="5.91729">
        <ele>625.47485351562</ele>
        <time>2012-05-13T07:44:03Z</time>
      </trkpt>
      <trkpt lat="43.30652" lon="5.91758">
        <ele>627.39770507812</ele>
        <time>2012-05-13T07:44:17Z</time>
      </trkpt>
      <trkpt lat="43.30686" lon="5.91755">
        <ele>624.03295898438</ele>
        <time>2012-05-13T07:44:31Z</time>
      </trkpt>
      <trkpt lat="43.30693" lon="5.91753">
        <ele>623.07177734375</ele>
        <time>2012-05-13T07:44:33Z</time>
      </trkpt>
      <trkpt lat="43.3071" lon="5.91719">
        <ele>623.55249023438</ele>
        <time>2012-05-13T07:44:43Z</time>
      </trkpt>
      <trkpt lat="43.30711" lon="5.91716">
        <ele>624.03295898438</ele>
        <time>2012-05-13T07:44:44Z</time>
      </trkpt>
      <trkpt lat="43.30733" lon="5.91678">
        <ele>625.47485351562</ele>
        <time>2012-05-13T07:45:00Z</time>
      </trkpt>
      <trkpt lat="43.30751" lon="5.91626">
        <ele>627.39770507812</ele>
        <time>2012-05-13T07:45:19Z</time>
      </trkpt>
      <trkpt lat="43.30765" lon="5.91595">
        <ele>628.35888671875</ele>
        <time>2012-05-13T07:45:30Z</time>
      </trkpt>
      <trkpt lat="43.3079" lon="5.91534">
        <ele>630.76220703125</ele>
        <time>2012-05-13T07:45:51Z</time>
      </trkpt>
      <trkpt lat="43.30822" lon="5.91488">
        <ele>633.16528320312</ele>
        <time>2012-05-13T07:46:13Z</time>
      </trkpt>
      <trkpt lat="43.30858" lon="5.91467">
        <ele>636.04956054688</ele>
        <time>2012-05-13T07:46:32Z</time>
      </trkpt>
      <trkpt lat="43.30877" lon="5.91461">
        <ele>639.4140625</ele>
        <time>2012-05-13T07:46:46Z</time>
      </trkpt>
      <trkpt lat="43.30895" lon="5.9147">
        <ele>642.29809570312</ele>
        <time>2012-05-13T07:47:00Z</time>
      </trkpt>
      <trkpt lat="43.30897" lon="5.91472">
        <ele>642.77880859375</ele>
        <time>2012-05-13T07:47:02Z</time>
      </trkpt>
      <trkpt lat="43.30914" lon="5.91472">
        <ele>646.14331054688</ele>
        <time>2012-05-13T07:47:17Z</time>
      </trkpt>
      <trkpt lat="43.30923" lon="5.91467">
        <ele>647.58520507812</ele>
        <time>2012-05-13T07:47:26Z</time>
      </trkpt>
      <trkpt lat="43.30934" lon="5.91456">
        <ele>649.02709960938</ele>
        <time>2012-05-13T07:47:36Z</time>
      </trkpt>
      <trkpt lat="43.30955" lon="5.91432">
        <ele>651.9111328125</ele>
        <time>2012-05-13T07:47:57Z</time>
      </trkpt>
      <trkpt lat="43.30954" lon="5.91395">
        <ele>654.31469726562</ele>
        <time>2012-05-13T07:48:16Z</time>
      </trkpt>
      <trkpt lat="43.30947" lon="5.91369">
        <ele>657.67919921875</ele>
        <time>2012-05-13T07:48:29Z</time>
      </trkpt>
      <trkpt lat="43.30938" lon="5.91345">
        <ele>659.60180664062</ele>
        <time>2012-05-13T07:48:42Z</time>
      </trkpt>
      <trkpt lat="43.30931" lon="5.91333">
        <ele>660.56298828125</ele>
        <time>2012-05-13T07:48:49Z</time>
      </trkpt>
      <trkpt lat="43.3092" lon="5.91316">
        <ele>663.92749023438</ele>
        <time>2012-05-13T07:49:01Z</time>
      </trkpt>
      <trkpt lat="43.30911" lon="5.91297">
        <ele>667.29223632812</ele>
        <time>2012-05-13T07:49:13Z</time>
      </trkpt>
      <trkpt lat="43.30908" lon="5.91294">
        <ele>667.77270507812</ele>
        <time>2012-05-13T07:49:16Z</time>
      </trkpt>
      <trkpt lat="43.30893" lon="5.91272">
        <ele>670.65698242188</ele>
        <time>2012-05-13T07:49:38Z</time>
      </trkpt>
      <trkpt lat="43.30889" lon="5.9127">
        <ele>672.09887695312</ele>
        <time>2012-05-13T07:49:57Z</time>
      </trkpt>
      <trkpt lat="43.30888" lon="5.91261">
        <ele>674.021484375</ele>
        <time>2012-05-13T07:50:12Z</time>
      </trkpt>
      <trkpt lat="43.30888" lon="5.9126">
        <ele>673.541015625</ele>
        <time>2012-05-13T07:50:37Z</time>
      </trkpt>
      <trkpt lat="43.30888" lon="5.9126">
        <ele>676.4248046875</ele>
        <time>2012-05-13T07:52:14Z</time>
      </trkpt>
      <trkpt lat="43.30888" lon="5.9126">
        <ele>679.30859375</ele>
        <time>2012-05-13T07:54:30Z</time>
      </trkpt>
      <trkpt lat="43.30887" lon="5.9126">
        <ele>682.67333984375</ele>
        <time>2012-05-13T07:56:48Z</time>
      </trkpt>
      <trkpt lat="43.30887" lon="5.9126">
        <ele>685.55737304688</ele>
        <time>2012-05-13T07:59:28Z</time>
      </trkpt>
      <trkpt lat="43.30886" lon="5.91261">
        <ele>688.92211914062</ele>
        <time>2012-05-13T08:03:04Z</time>
      </trkpt>
      <trkpt lat="43.30887" lon="5.91259">
        <ele>689.88330078125</ele>
        <time>2012-05-13T08:03:39Z</time>
      </trkpt>
      <trkpt lat="43.3089" lon="5.91246">
        <ele>691.80590820312</ele>
        <time>2012-05-13T08:03:46Z</time>
      </trkpt>
      <trkpt lat="43.30893" lon="5.91239">
        <ele>692.28662109375</ele>
        <time>2012-05-13T08:03:50Z</time>
      </trkpt>
      <trkpt lat="43.30893" lon="5.9123">
        <ele>693.24780273438</ele>
        <time>2012-05-13T08:03:55Z</time>
      </trkpt>
      <trkpt lat="43.30893" lon="5.91227">
        <ele>693.728515625</ele>
        <time>2012-05-13T08:03:57Z</time>
      </trkpt>
      <trkpt lat="43.30893" lon="5.91222">
        <ele>694.20922851562</ele>
        <time>2012-05-13T08:04:00Z</time>
      </trkpt>
      <trkpt lat="43.30892" lon="5.91212">
        <ele>695.65112304688</ele>
        <time>2012-05-13T08:04:06Z</time>
      </trkpt>
      <trkpt lat="43.30894" lon="5.91191">
        <ele>699.015625</ele>
        <time>2012-05-13T08:04:19Z</time>
      </trkpt>
      <trkpt lat="43.30899" lon="5.91182">
        <ele>699.97705078125</ele>
        <time>2012-05-13T08:04:27Z</time>
      </trkpt>
      <trkpt lat="43.30919" lon="5.91186">
        <ele>703.341796875</ele>
        <time>2012-05-13T08:04:43Z</time>
      </trkpt>
      <trkpt lat="43.30926" lon="5.91188">
        <ele>704.78369140625</ele>
        <time>2012-05-13T08:04:49Z</time>
      </trkpt>
      <trkpt lat="43.30943" lon="5.91196">
        <ele>707.66772460938</ele>
        <time>2012-05-13T08:05:05Z</time>
      </trkpt>
      <trkpt lat="43.30958" lon="5.912">
        <ele>708.62890625</ele>
        <time>2012-05-13T08:05:19Z</time>
      </trkpt>
      <trkpt lat="43.30977" lon="5.91186">
        <ele>711.0322265625</ele>
        <time>2012-05-13T08:05:37Z</time>
      </trkpt>
      <trkpt lat="43.30989" lon="5.91166">
        <ele>711.99365234375</ele>
        <time>2012-05-13T08:05:50Z</time>
      </trkpt>
      <trkpt lat="43.31013" lon="5.91135">
        <ele>713.435546875</ele>
        <time>2012-05-13T08:06:06Z</time>
      </trkpt>
      <trkpt lat="43.31037" lon="5.91119">
        <ele>714.39672851562</ele>
        <time>2012-05-13T08:06:23Z</time>
      </trkpt>
      <trkpt lat="43.31043" lon="5.91115">
        <ele>714.87744140625</ele>
        <time>2012-05-13T08:06:28Z</time>
      </trkpt>
      <trkpt lat="43.31063" lon="5.91117">
        <ele>716.80029296875</ele>
        <time>2012-05-13T08:06:45Z</time>
      </trkpt>
      <trkpt lat="43.31089" lon="5.91118">
        <ele>720.16479492188</ele>
        <time>2012-05-13T08:07:05Z</time>
      </trkpt>
      <trkpt lat="43.31118" lon="5.9114">
        <ele>720.16479492188</ele>
        <time>2012-05-13T08:07:21Z</time>
      </trkpt>
      <trkpt lat="43.31125" lon="5.91154">
        <ele>720.16479492188</ele>
        <time>2012-05-13T08:07:28Z</time>
      </trkpt>
      <trkpt lat="43.31135" lon="5.91157">
        <ele>719.68432617188</ele>
        <time>2012-05-13T08:07:32Z</time>
      </trkpt>
      <trkpt lat="43.31183" lon="5.91153">
        <ele>717.76147460938</ele>
        <time>2012-05-13T08:07:48Z</time>
      </trkpt>
      <trkpt lat="43.31231" lon="5.91159">
        <ele>714.87744140625</ele>
        <time>2012-05-13T08:08:02Z</time>
      </trkpt>
      <trkpt lat="43.31235" lon="5.91162">
        <ele>714.87744140625</ele>
        <time>2012-05-13T08:08:03Z</time>
      </trkpt>
      <trkpt lat="43.31245" lon="5.91187">
        <ele>714.87744140625</ele>
        <time>2012-05-13T08:08:08Z</time>
      </trkpt>
      <trkpt lat="43.31242" lon="5.91239">
        <ele>716.31958007812</ele>
        <time>2012-05-13T08:08:21Z</time>
      </trkpt>
      <trkpt lat="43.31244" lon="5.91244">
        <ele>716.80029296875</ele>
        <time>2012-05-13T08:08:23Z</time>
      </trkpt>
      <trkpt lat="43.31254" lon="5.9125">
        <ele>716.31958007812</ele>
        <time>2012-05-13T08:08:27Z</time>
      </trkpt>
      <trkpt lat="43.31313" lon="5.91247">
        <ele>717.28100585938</ele>
        <time>2012-05-13T08:08:47Z</time>
      </trkpt>
      <trkpt lat="43.31354" lon="5.9126">
        <ele>718.2421875</ele>
        <time>2012-05-13T08:09:01Z</time>
      </trkpt>
      <trkpt lat="43.31379" lon="5.91224">
        <ele>718.2421875</ele>
        <time>2012-05-13T08:09:13Z</time>
      </trkpt>
      <trkpt lat="43.31402" lon="5.91178">
        <ele>716.31958007812</ele>
        <time>2012-05-13T08:09:25Z</time>
      </trkpt>
      <trkpt lat="43.31402" lon="5.91115">
        <ele>714.87744140625</ele>
        <time>2012-05-13T08:09:35Z</time>
      </trkpt>
      <trkpt lat="43.31407" lon="5.91092">
        <ele>713.916015625</ele>
        <time>2012-05-13T08:09:40Z</time>
      </trkpt>
      <trkpt lat="43.31412" lon="5.91076">
        <ele>712.47412109375</ele>
        <time>2012-05-13T08:09:43Z</time>
      </trkpt>
      <trkpt lat="43.31411" lon="5.91057">
        <ele>711.51293945312</ele>
        <time>2012-05-13T08:09:46Z</time>
      </trkpt>
      <trkpt lat="43.31408" lon="5.91041">
        <ele>711.0322265625</ele>
        <time>2012-05-13T08:09:49Z</time>
      </trkpt>
      <trkpt lat="43.31414" lon="5.91017">
        <ele>709.10961914062</ele>
        <time>2012-05-13T08:09:53Z</time>
      </trkpt>
      <trkpt lat="43.31426" lon="5.90994">
        <ele>709.10961914062</ele>
        <time>2012-05-13T08:09:57Z</time>
      </trkpt>
      <trkpt lat="43.31434" lon="5.90962">
        <ele>708.62890625</ele>
        <time>2012-05-13T08:10:02Z</time>
      </trkpt>
      <trkpt lat="43.31452" lon="5.90949">
        <ele>709.10961914062</ele>
        <time>2012-05-13T08:10:07Z</time>
      </trkpt>
      <trkpt lat="43.31466" lon="5.90931">
        <ele>706.2255859375</ele>
        <time>2012-05-13T08:10:12Z</time>
      </trkpt>
      <trkpt lat="43.31475" lon="5.909">
        <ele>704.30322265625</ele>
        <time>2012-05-13T08:10:17Z</time>
      </trkpt>
      <trkpt lat="43.31483" lon="5.90872">
        <ele>703.341796875</ele>
        <time>2012-05-13T08:10:21Z</time>
      </trkpt>
      <trkpt lat="43.31492" lon="5.90851">
        <ele>702.86108398438</ele>
        <time>2012-05-13T08:10:25Z</time>
      </trkpt>
      <trkpt lat="43.31514" lon="5.90811">
        <ele>701.41918945312</ele>
        <time>2012-05-13T08:10:33Z</time>
      </trkpt>
      <trkpt lat="43.31513" lon="5.90786">
        <ele>701.89990234375</ele>
        <time>2012-05-13T08:10:37Z</time>
      </trkpt>
      <trkpt lat="43.31511" lon="5.90773">
        <ele>701.41918945312</ele>
        <time>2012-05-13T08:10:39Z</time>
      </trkpt>
      <trkpt lat="43.31518" lon="5.90741">
        <ele>700.4580078125</ele>
        <time>2012-05-13T08:10:44Z</time>
      </trkpt>
      <trkpt lat="43.31531" lon="5.90668">
        <ele>699.49633789062</ele>
        <time>2012-05-13T08:10:57Z</time>
      </trkpt>
      <trkpt lat="43.3156" lon="5.90639">
        <ele>699.015625</ele>
        <time>2012-05-13T08:11:06Z</time>
      </trkpt>
      <trkpt lat="43.31574" lon="5.90617">
        <ele>699.49633789062</ele>
        <time>2012-05-13T08:11:12Z</time>
      </trkpt>
      <trkpt lat="43.31606" lon="5.90595">
        <ele>699.97705078125</ele>
        <time>2012-05-13T08:11:21Z</time>
      </trkpt>
      <trkpt lat="43.31613" lon="5.90578">
        <ele>700.4580078125</ele>
        <time>2012-05-13T08:11:25Z</time>
      </trkpt>
      <trkpt lat="43.31631" lon="5.90505">
        <ele>700.9384765625</ele>
        <time>2012-05-13T08:11:41Z</time>
      </trkpt>
      <trkpt lat="43.31665" lon="5.90478">
        <ele>702.86108398438</ele>
        <time>2012-05-13T08:11:56Z</time>
      </trkpt>
      <trkpt lat="43.31707" lon="5.90479">
        <ele>704.78369140625</ele>
        <time>2012-05-13T08:12:13Z</time>
      </trkpt>
      <trkpt lat="43.31731" lon="5.90496">
        <ele>705.26440429688</ele>
        <time>2012-05-13T08:12:23Z</time>
      </trkpt>
      <trkpt lat="43.31763" lon="5.90498">
        <ele>703.82250976562</ele>
        <time>2012-05-13T08:12:34Z</time>
      </trkpt>
      <trkpt lat="43.31766" lon="5.90499">
        <ele>703.82250976562</ele>
        <time>2012-05-13T08:12:35Z</time>
      </trkpt>
      <trkpt lat="43.31785" lon="5.90494">
        <ele>702.38037109375</ele>
        <time>2012-05-13T08:12:40Z</time>
      </trkpt>
      <trkpt lat="43.31817" lon="5.90453">
        <ele>702.86108398438</ele>
        <time>2012-05-13T08:12:54Z</time>
      </trkpt>
      <trkpt lat="43.31856" lon="5.90419">
        <ele>703.82250976562</ele>
        <time>2012-05-13T08:13:08Z</time>
      </trkpt>
      <trkpt lat="43.31895" lon="5.90382">
        <ele>705.26440429688</ele>
        <time>2012-05-13T08:13:23Z</time>
      </trkpt>
      <trkpt lat="43.31948" lon="5.90347">
        <ele>707.66772460938</ele>
        <time>2012-05-13T08:13:44Z</time>
      </trkpt>
      <trkpt lat="43.31986" lon="5.90307">
        <ele>709.59033203125</ele>
        <time>2012-05-13T08:14:02Z</time>
      </trkpt>
      <trkpt lat="43.3201" lon="5.90269">
        <ele>711.51293945312</ele>
        <time>2012-05-13T08:14:20Z</time>
      </trkpt>
      <trkpt lat="43.3198" lon="5.90181">
        <ele>709.59033203125</ele>
        <time>2012-05-13T08:14:39Z</time>
      </trkpt>
      <trkpt lat="43.3195" lon="5.90114">
        <ele>711.0322265625</ele>
        <time>2012-05-13T08:14:55Z</time>
      </trkpt>
      <trkpt lat="43.31925" lon="5.90055">
        <ele>712.95483398438</ele>
        <time>2012-05-13T08:15:10Z</time>
      </trkpt>
      <trkpt lat="43.31901" lon="5.89989">
        <ele>713.435546875</ele>
        <time>2012-05-13T08:15:26Z</time>
      </trkpt>
      <trkpt lat="43.31875" lon="5.89911">
        <ele>712.47412109375</ele>
        <time>2012-05-13T08:15:43Z</time>
      </trkpt>
      <trkpt lat="43.31851" lon="5.8986">
        <ele>714.39672851562</ele>
        <time>2012-05-13T08:15:59Z</time>
      </trkpt>
      <trkpt lat="43.3182" lon="5.8983">
        <ele>712.95483398438</ele>
        <time>2012-05-13T08:16:12Z</time>
      </trkpt>
      <trkpt lat="43.31786" lon="5.89789">
        <ele>711.0322265625</ele>
        <time>2012-05-13T08:16:23Z</time>
      </trkpt>
      <trkpt lat="43.31773" lon="5.89764">
        <ele>710.55151367188</ele>
        <time>2012-05-13T08:16:28Z</time>
      </trkpt>
      <trkpt lat="43.31768" lon="5.89755">
        <ele>710.07080078125</ele>
        <time>2012-05-13T08:16:30Z</time>
      </trkpt>
      <trkpt lat="43.31743" lon="5.89735">
        <ele>710.07080078125</ele>
        <time>2012-05-13T08:16:37Z</time>
      </trkpt>
      <trkpt lat="43.31692" lon="5.89698">
        <ele>711.0322265625</ele>
        <time>2012-05-13T08:16:53Z</time>
      </trkpt>
      <trkpt lat="43.31662" lon="5.89659">
        <ele>710.07080078125</ele>
        <time>2012-05-13T08:17:07Z</time>
      </trkpt>
      <trkpt lat="43.31615" lon="5.89624">
        <ele>709.59033203125</ele>
        <time>2012-05-13T08:17:24Z</time>
      </trkpt>
      <trkpt lat="43.31574" lon="5.89609">
        <ele>708.1484375</ele>
        <time>2012-05-13T08:17:36Z</time>
      </trkpt>
      <trkpt lat="43.3153" lon="5.89564">
        <ele>708.62890625</ele>
        <time>2012-05-13T08:17:51Z</time>
      </trkpt>
      <trkpt lat="43.31477" lon="5.8951">
        <ele>710.07080078125</ele>
        <time>2012-05-13T08:18:11Z</time>
      </trkpt>
      <trkpt lat="43.31445" lon="5.8947">
        <ele>709.59033203125</ele>
        <time>2012-05-13T08:18:24Z</time>
      </trkpt>
      <trkpt lat="43.31419" lon="5.89421">
        <ele>711.51293945312</ele>
        <time>2012-05-13T08:18:39Z</time>
      </trkpt>
      <trkpt lat="43.31372" lon="5.89367">
        <ele>711.99365234375</ele>
        <time>2012-05-13T08:18:59Z</time>
      </trkpt>
      <trkpt lat="43.31345" lon="5.89338">
        <ele>711.99365234375</ele>
        <time>2012-05-13T08:19:11Z</time>
      </trkpt>
      <trkpt lat="43.31307" lon="5.89305">
        <ele>711.99365234375</ele>
        <time>2012-05-13T08:19:25Z</time>
      </trkpt>
      <trkpt lat="43.3128" lon="5.89245">
        <ele>712.95483398438</ele>
        <time>2012-05-13T08:19:42Z</time>
      </trkpt>
      <trkpt lat="43.31262" lon="5.89177">
        <ele>713.916015625</ele>
        <time>2012-05-13T08:20:00Z</time>
      </trkpt>
      <trkpt lat="43.31265" lon="5.89083">
        <ele>715.8388671875</ele>
        <time>2012-05-13T08:20:23Z</time>
      </trkpt>
      <trkpt lat="43.31292" lon="5.89016">
        <ele>717.76147460938</ele>
        <time>2012-05-13T08:20:43Z</time>
      </trkpt>
      <trkpt lat="43.31316" lon="5.88978">
        <ele>719.68432617188</ele>
        <time>2012-05-13T08:20:59Z</time>
      </trkpt>
      <trkpt lat="43.31347" lon="5.88948">
        <ele>721.60668945312</ele>
        <time>2012-05-13T08:21:16Z</time>
      </trkpt>
      <trkpt lat="43.31375" lon="5.88926">
        <ele>724.01000976562</ele>
        <time>2012-05-13T08:21:30Z</time>
      </trkpt>
      <trkpt lat="43.3138" lon="5.88922">
        <ele>724.01000976562</ele>
        <time>2012-05-13T08:21:33Z</time>
      </trkpt>
      <trkpt lat="43.31388" lon="5.88918">
        <ele>724.01000976562</ele>
        <time>2012-05-13T08:21:37Z</time>
      </trkpt>
      <trkpt lat="43.31427" lon="5.88901">
        <ele>726.41333007812</ele>
        <time>2012-05-13T08:21:55Z</time>
      </trkpt>
      <trkpt lat="43.31454" lon="5.88888">
        <ele>728.81665039062</ele>
        <time>2012-05-13T08:22:11Z</time>
      </trkpt>
      <trkpt lat="43.31487" lon="5.88882">
        <ele>731.21997070312</ele>
        <time>2012-05-13T08:22:27Z</time>
      </trkpt>
      <trkpt lat="43.31519" lon="5.8889">
        <ele>732.662109375</ele>
        <time>2012-05-13T08:22:44Z</time>
      </trkpt>
      <trkpt lat="43.3155" lon="5.88897">
        <ele>735.0654296875</ele>
        <time>2012-05-13T08:23:01Z</time>
      </trkpt>
      <trkpt lat="43.31551" lon="5.88871">
        <ele>737.46850585938</ele>
        <time>2012-05-13T08:23:15Z</time>
      </trkpt>
      <trkpt lat="43.3155" lon="5.88865">
        <ele>738.42993164062</ele>
        <time>2012-05-13T08:23:18Z</time>
      </trkpt>
      <trkpt lat="43.31554" lon="5.88852">
        <ele>739.87182617188</ele>
        <time>2012-05-13T08:23:25Z</time>
      </trkpt>
      <trkpt lat="43.31573" lon="5.88834">
        <ele>741.31372070312</ele>
        <time>2012-05-13T08:23:41Z</time>
      </trkpt>
      <trkpt lat="43.31577" lon="5.88828">
        <ele>742.27514648438</ele>
        <time>2012-05-13T08:23:45Z</time>
      </trkpt>
      <trkpt lat="43.31578" lon="5.88826">
        <ele>742.27514648438</ele>
        <time>2012-05-13T08:23:47Z</time>
      </trkpt>
      <trkpt lat="43.31589" lon="5.88826">
        <ele>742.27514648438</ele>
        <time>2012-05-13T08:23:54Z</time>
      </trkpt>
      <trkpt lat="43.3161" lon="5.88793">
        <ele>744.19775390625</ele>
        <time>2012-05-13T08:24:14Z</time>
      </trkpt>
      <trkpt lat="43.3164" lon="5.88769">
        <ele>747.08154296875</ele>
        <time>2012-05-13T08:24:34Z</time>
      </trkpt>
      <trkpt lat="43.31646" lon="5.88756">
        <ele>748.04321289062</ele>
        <time>2012-05-13T08:24:48Z</time>
      </trkpt>
      <trkpt lat="43.31657" lon="5.88714">
        <ele>749.9658203125</ele>
        <time>2012-05-13T08:25:07Z</time>
      </trkpt>
      <trkpt lat="43.31658" lon="5.88679">
        <ele>751.88842773438</ele>
        <time>2012-05-13T08:25:23Z</time>
      </trkpt>
      <trkpt lat="43.31665" lon="5.88645">
        <ele>754.77221679688</ele>
        <time>2012-05-13T08:25:42Z</time>
      </trkpt>
      <trkpt lat="43.31676" lon="5.88609">
        <ele>756.21411132812</ele>
        <time>2012-05-13T08:26:02Z</time>
      </trkpt>
      <trkpt lat="43.31683" lon="5.88571">
        <ele>758.61743164062</ele>
        <time>2012-05-13T08:26:21Z</time>
      </trkpt>
      <trkpt lat="43.31685" lon="5.88558">
        <ele>759.57885742188</ele>
        <time>2012-05-13T08:26:28Z</time>
      </trkpt>
      <trkpt lat="43.31681" lon="5.8853">
        <ele>761.50146484375</ele>
        <time>2012-05-13T08:26:45Z</time>
      </trkpt>
      <trkpt lat="43.31671" lon="5.88497">
        <ele>763.90454101562</ele>
        <time>2012-05-13T08:27:00Z</time>
      </trkpt>
      <trkpt lat="43.31672" lon="5.88463">
        <ele>765.34692382812</ele>
        <time>2012-05-13T08:27:17Z</time>
      </trkpt>
      <trkpt lat="43.31671" lon="5.88427">
        <ele>767.26953125</ele>
        <time>2012-05-13T08:27:37Z</time>
      </trkpt>
      <trkpt lat="43.31673" lon="5.88395">
        <ele>770.1533203125</ele>
        <time>2012-05-13T08:27:54Z</time>
      </trkpt>
      <trkpt lat="43.31689" lon="5.88363">
        <ele>773.03735351562</ele>
        <time>2012-05-13T08:28:15Z</time>
      </trkpt>
      <trkpt lat="43.31692" lon="5.88322">
        <ele>775.92114257812</ele>
        <time>2012-05-13T08:28:37Z</time>
      </trkpt>
      <trkpt lat="43.31691" lon="5.88314">
        <ele>775.92114257812</ele>
        <time>2012-05-13T08:28:41Z</time>
      </trkpt>
      <trkpt lat="43.317" lon="5.88282">
        <ele>778.32446289062</ele>
        <time>2012-05-13T08:29:00Z</time>
      </trkpt>
      <trkpt lat="43.31711" lon="5.88247">
        <ele>781.68920898438</ele>
        <time>2012-05-13T08:29:19Z</time>
      </trkpt>
      <trkpt lat="43.31719" lon="5.88204">
        <ele>784.5732421875</ele>
        <time>2012-05-13T08:29:41Z</time>
      </trkpt>
      <trkpt lat="43.31727" lon="5.88173">
        <ele>786.97631835938</ele>
        <time>2012-05-13T08:30:00Z</time>
      </trkpt>
      <trkpt lat="43.31728" lon="5.88132">
        <ele>788.89916992188</ele>
        <time>2012-05-13T08:30:21Z</time>
      </trkpt>
      <trkpt lat="43.31731" lon="5.88102">
        <ele>791.78295898438</ele>
        <time>2012-05-13T08:30:39Z</time>
      </trkpt>
      <trkpt lat="43.31734" lon="5.88093">
        <ele>792.263671875</ele>
        <time>2012-05-13T08:30:49Z</time>
      </trkpt>
      <trkpt lat="43.3174" lon="5.88081">
        <ele>793.70556640625</ele>
        <time>2012-05-13T08:31:06Z</time>
      </trkpt>
      <trkpt lat="43.31741" lon="5.88035">
        <ele>794.66674804688</ele>
        <time>2012-05-13T08:31:23Z</time>
      </trkpt>
      <trkpt lat="43.31717" lon="5.88001">
        <ele>796.58984375</ele>
        <time>2012-05-13T08:31:42Z</time>
      </trkpt>
      <trkpt lat="43.31712" lon="5.87966">
        <ele>798.03173828125</ele>
        <time>2012-05-13T08:31:59Z</time>
      </trkpt>
      <trkpt lat="43.31711" lon="5.87926">
        <ele>801.39624023438</ele>
        <time>2012-05-13T08:32:18Z</time>
      </trkpt>
      <trkpt lat="43.31715" lon="5.87898">
        <ele>804.2802734375</ele>
        <time>2012-05-13T08:32:31Z</time>
      </trkpt>
      <trkpt lat="43.31732" lon="5.87869">
        <ele>807.64477539062</ele>
        <time>2012-05-13T08:32:48Z</time>
      </trkpt>
      <trkpt lat="43.31738" lon="5.87861">
        <ele>808.60595703125</ele>
        <time>2012-05-13T08:32:54Z</time>
      </trkpt>
      <trkpt lat="43.31744" lon="5.87856">
        <ele>809.08666992188</ele>
        <time>2012-05-13T08:32:59Z</time>
      </trkpt>
      <trkpt lat="43.3175" lon="5.87836">
        <ele>811.48999023438</ele>
        <time>2012-05-13T08:33:13Z</time>
      </trkpt>
      <trkpt lat="43.31754" lon="5.87829">
        <ele>811.970703125</ele>
        <time>2012-05-13T08:33:18Z</time>
      </trkpt>
      <trkpt lat="43.31757" lon="5.87796">
        <ele>813.89331054688</ele>
        <time>2012-05-13T08:33:38Z</time>
      </trkpt>
      <trkpt lat="43.31756" lon="5.87789">
        <ele>814.3740234375</ele>
        <time>2012-05-13T08:33:42Z</time>
      </trkpt>
      <trkpt lat="43.31753" lon="5.87753">
        <ele>817.25805664062</ele>
        <time>2012-05-13T08:34:02Z</time>
      </trkpt>
      <trkpt lat="43.31755" lon="5.87722">
        <ele>820.14184570312</ele>
        <time>2012-05-13T08:34:19Z</time>
      </trkpt>
      <trkpt lat="43.31758" lon="5.87699">
        <ele>820.62255859375</ele>
        <time>2012-05-13T08:34:32Z</time>
      </trkpt>
      <trkpt lat="43.31771" lon="5.87671">
        <ele>823.50659179688</ele>
        <time>2012-05-13T08:34:53Z</time>
      </trkpt>
      <trkpt lat="43.31771" lon="5.87673">
        <ele>823.50659179688</ele>
        <time>2012-05-13T08:35:24Z</time>
      </trkpt>
      <trkpt lat="43.31772" lon="5.87672">
        <ele>823.98706054688</ele>
        <time>2012-05-13T08:36:21Z</time>
      </trkpt>
      <trkpt lat="43.31782" lon="5.87666">
        <ele>826.87109375</ele>
        <time>2012-05-13T08:36:38Z</time>
      </trkpt>
      <trkpt lat="43.31784" lon="5.87666">
        <ele>826.87109375</ele>
        <time>2012-05-13T08:36:39Z</time>
      </trkpt>
      <trkpt lat="43.31792" lon="5.8766">
        <ele>828.7939453125</ele>
        <time>2012-05-13T08:36:46Z</time>
      </trkpt>
      <trkpt lat="43.31794" lon="5.87643">
        <ele>831.677734375</ele>
        <time>2012-05-13T08:36:56Z</time>
      </trkpt>
      <trkpt lat="43.31793" lon="5.87638">
        <ele>832.15844726562</ele>
        <time>2012-05-13T08:37:00Z</time>
      </trkpt>
      <trkpt lat="43.31796" lon="5.87622">
        <ele>834.56176757812</ele>
        <time>2012-05-13T08:37:11Z</time>
      </trkpt>
      <trkpt lat="43.31803" lon="5.87613">
        <ele>837.44555664062</ele>
        <time>2012-05-13T08:37:28Z</time>
      </trkpt>
      <trkpt lat="43.31805" lon="5.87604">
        <ele>838.8876953125</ele>
        <time>2012-05-13T08:37:45Z</time>
      </trkpt>
      <trkpt lat="43.31807" lon="5.87599">
        <ele>839.84887695312</ele>
        <time>2012-05-13T08:37:51Z</time>
      </trkpt>
      <trkpt lat="43.31809" lon="5.87591">
        <ele>840.81005859375</ele>
        <time>2012-05-13T08:38:12Z</time>
      </trkpt>
      <trkpt lat="43.31812" lon="5.87547">
        <ele>843.69409179688</ele>
        <time>2012-05-13T08:38:32Z</time>
      </trkpt>
      <trkpt lat="43.31822" lon="5.87504">
        <ele>847.05883789062</ele>
        <time>2012-05-13T08:38:51Z</time>
      </trkpt>
      <trkpt lat="43.31835" lon="5.87489">
        <ele>848.9814453125</ele>
        <time>2012-05-13T08:39:02Z</time>
      </trkpt>
      <trkpt lat="43.31843" lon="5.87493">
        <ele>849.94287109375</ele>
        <time>2012-05-13T08:39:08Z</time>
      </trkpt>
      <trkpt lat="43.31864" lon="5.87511">
        <ele>853.7880859375</ele>
        <time>2012-05-13T08:39:25Z</time>
      </trkpt>
      <trkpt lat="43.31872" lon="5.87516">
        <ele>855.22998046875</ele>
        <time>2012-05-13T08:39:32Z</time>
      </trkpt>
      <trkpt lat="43.31877" lon="5.87516">
        <ele>855.22998046875</ele>
        <time>2012-05-13T08:39:36Z</time>
      </trkpt>
      <trkpt lat="43.31901" lon="5.87519">
        <ele>858.11401367188</ele>
        <time>2012-05-13T08:39:57Z</time>
      </trkpt>
      <trkpt lat="43.31919" lon="5.87547">
        <ele>858.11401367188</ele>
        <time>2012-05-13T08:40:16Z</time>
      </trkpt>
      <trkpt lat="43.31943" lon="5.87553">
        <ele>861.47875976562</ele>
        <time>2012-05-13T08:40:35Z</time>
      </trkpt>
      <trkpt lat="43.31968" lon="5.87562">
        <ele>864.84326171875</ele>
        <time>2012-05-13T08:40:57Z</time>
      </trkpt>
      <trkpt lat="43.31984" lon="5.87548">
        <ele>866.76586914062</ele>
        <time>2012-05-13T08:41:13Z</time>
      </trkpt>
      <trkpt lat="43.31985" lon="5.87545">
        <ele>867.24658203125</ele>
        <time>2012-05-13T08:41:15Z</time>
      </trkpt>
      <trkpt lat="43.31989" lon="5.87529">
        <ele>867.72705078125</ele>
        <time>2012-05-13T08:41:25Z</time>
      </trkpt>
      <trkpt lat="43.31997" lon="5.87491">
        <ele>869.16918945312</ele>
        <time>2012-05-13T08:41:45Z</time>
      </trkpt>
      <trkpt lat="43.31997" lon="5.87455">
        <ele>868.6884765625</ele>
        <time>2012-05-13T08:42:02Z</time>
      </trkpt>
      <trkpt lat="43.32001" lon="5.8741">
        <ele>867.24658203125</ele>
        <time>2012-05-13T08:42:17Z</time>
      </trkpt>
      <trkpt lat="43.32003" lon="5.87402">
        <ele>867.72705078125</ele>
        <time>2012-05-13T08:42:20Z</time>
      </trkpt>
      <trkpt lat="43.32011" lon="5.8737">
        <ele>869.64990234375</ele>
        <time>2012-05-13T08:42:37Z</time>
      </trkpt>
      <trkpt lat="43.32025" lon="5.87328">
        <ele>869.64990234375</ele>
        <time>2012-05-13T08:42:55Z</time>
      </trkpt>
      <trkpt lat="43.32035" lon="5.87297">
        <ele>871.091796875</ele>
        <time>2012-05-13T08:43:11Z</time>
      </trkpt>
      <trkpt lat="43.32041" lon="5.87281">
        <ele>870.61108398438</ele>
        <time>2012-05-13T08:43:20Z</time>
      </trkpt>
      <trkpt lat="43.32048" lon="5.87273">
        <ele>870.13037109375</ele>
        <time>2012-05-13T08:43:24Z</time>
      </trkpt>
      <trkpt lat="43.3208" lon="5.87255">
        <ele>871.091796875</ele>
        <time>2012-05-13T08:43:37Z</time>
      </trkpt>
      <trkpt lat="43.32081" lon="5.87254">
        <ele>871.091796875</ele>
        <time>2012-05-13T08:43:38Z</time>
      </trkpt>
      <trkpt lat="43.32097" lon="5.87237">
        <ele>873.01440429688</ele>
        <time>2012-05-13T08:43:52Z</time>
      </trkpt>
      <trkpt lat="43.32116" lon="5.8723">
        <ele>876.37915039062</ele>
        <time>2012-05-13T08:44:07Z</time>
      </trkpt>
      <trkpt lat="43.32126" lon="5.87219">
        <ele>877.82104492188</ele>
        <time>2012-05-13T08:44:16Z</time>
      </trkpt>
      <trkpt lat="43.32133" lon="5.87211">
        <ele>879.74365234375</ele>
        <time>2012-05-13T08:44:24Z</time>
      </trkpt>
      <trkpt lat="43.32147" lon="5.87198">
        <ele>881.66625976562</ele>
        <time>2012-05-13T08:44:37Z</time>
      </trkpt>
      <trkpt lat="43.32168" lon="5.87182">
        <ele>883.5888671875</ele>
        <time>2012-05-13T08:44:56Z</time>
      </trkpt>
      <trkpt lat="43.32174" lon="5.87178">
        <ele>884.06958007812</ele>
        <time>2012-05-13T08:45:00Z</time>
      </trkpt>
      <trkpt lat="43.32178" lon="5.8717">
        <ele>885.03100585938</ele>
        <time>2012-05-13T08:45:13Z</time>
      </trkpt>
      <trkpt lat="43.32181" lon="5.87166">
        <ele>886.47290039062</ele>
        <time>2012-05-13T08:45:35Z</time>
      </trkpt>
      <trkpt lat="43.32182" lon="5.87162">
        <ele>886.47290039062</ele>
        <time>2012-05-13T08:45:50Z</time>
      </trkpt>
      <trkpt lat="43.32181" lon="5.87162">
        <ele>886.47290039062</ele>
        <time>2012-05-13T08:45:54Z</time>
      </trkpt>
      <trkpt lat="43.32184" lon="5.87158">
        <ele>886.95336914062</ele>
        <time>2012-05-13T08:45:58Z</time>
      </trkpt>
      <trkpt lat="43.32199" lon="5.87143">
        <ele>888.3955078125</ele>
        <time>2012-05-13T08:46:11Z</time>
      </trkpt>
      <trkpt lat="43.32222" lon="5.87118">
        <ele>891.76000976562</ele>
        <time>2012-05-13T08:46:33Z</time>
      </trkpt>
      <trkpt lat="43.32243" lon="5.87111">
        <ele>892.24096679688</ele>
        <time>2012-05-13T08:46:51Z</time>
      </trkpt>
      <trkpt lat="43.32264" lon="5.87108">
        <ele>893.68286132812</ele>
        <time>2012-05-13T08:47:07Z</time>
      </trkpt>
      <trkpt lat="43.32288" lon="5.87099">
        <ele>896.08618164062</ele>
        <time>2012-05-13T08:47:26Z</time>
      </trkpt>
      <trkpt lat="43.32294" lon="5.87097">
        <ele>897.04736328125</ele>
        <time>2012-05-13T08:47:31Z</time>
      </trkpt>
      <trkpt lat="43.32312" lon="5.87091">
        <ele>898.4892578125</ele>
        <time>2012-05-13T08:47:46Z</time>
      </trkpt>
      <trkpt lat="43.32348" lon="5.87079">
        <ele>900.412109375</ele>
        <time>2012-05-13T08:48:09Z</time>
      </trkpt>
      <trkpt lat="43.32372" lon="5.87072">
        <ele>901.85400390625</ele>
        <time>2012-05-13T08:48:28Z</time>
      </trkpt>
      <trkpt lat="43.32387" lon="5.87062">
        <ele>903.2958984375</ele>
        <time>2012-05-13T08:48:39Z</time>
      </trkpt>
      <trkpt lat="43.32406" lon="5.87047">
        <ele>904.73779296875</ele>
        <time>2012-05-13T08:48:55Z</time>
      </trkpt>
      <trkpt lat="43.32424" lon="5.87032">
        <ele>907.14111328125</ele>
        <time>2012-05-13T08:49:10Z</time>
      </trkpt>
      <trkpt lat="43.32432" lon="5.87029">
        <ele>907.14111328125</ele>
        <time>2012-05-13T08:49:16Z</time>
      </trkpt>
      <trkpt lat="43.32438" lon="5.8703">
        <ele>907.62182617188</ele>
        <time>2012-05-13T08:49:20Z</time>
      </trkpt>
      <trkpt lat="43.32449" lon="5.87024">
        <ele>909.54467773438</ele>
        <time>2012-05-13T08:49:35Z</time>
      </trkpt>
      <trkpt lat="43.32446" lon="5.87027">
        <ele>909.54467773438</ele>
        <time>2012-05-13T08:50:21Z</time>
      </trkpt>
      <trkpt lat="43.32446" lon="5.87027">
        <ele>910.505859375</ele>
        <time>2012-05-13T08:54:07Z</time>
      </trkpt>
      <trkpt lat="43.32448" lon="5.87027">
        <ele>910.98657226562</ele>
        <time>2012-05-13T08:56:25Z</time>
      </trkpt>
      <trkpt lat="43.3245" lon="5.87032">
        <ele>910.505859375</ele>
        <time>2012-05-13T08:56:40Z</time>
      </trkpt>
      <trkpt lat="43.32449" lon="5.87032">
        <ele>910.02514648438</ele>
        <time>2012-05-13T08:57:34Z</time>
      </trkpt>
      <trkpt lat="43.32449" lon="5.87032">
        <ele>909.54467773438</ele>
        <time>2012-05-13T08:58:49Z</time>
      </trkpt>
      <trkpt lat="43.32449" lon="5.87032">
        <ele>910.98657226562</ele>
        <time>2012-05-13T08:59:23Z</time>
      </trkpt>
      <trkpt lat="43.32448" lon="5.87033">
        <ele>910.505859375</ele>
        <time>2012-05-13T08:59:56Z</time>
      </trkpt>
      <trkpt lat="43.32448" lon="5.87033">
        <ele>910.505859375</ele>
        <time>2012-05-13T09:00:43Z</time>
      </trkpt>
      <trkpt lat="43.32447" lon="5.87033">
        <ele>910.02514648438</ele>
        <time>2012-05-13T09:01:33Z</time>
      </trkpt>
      <trkpt lat="43.32448" lon="5.87032">
        <ele>910.02514648438</ele>
        <time>2012-05-13T09:02:38Z</time>
      </trkpt>
      <trkpt lat="43.32448" lon="5.87032">
        <ele>909.54467773438</ele>
        <time>2012-05-13T09:04:05Z</time>
      </trkpt>
      <trkpt lat="43.32449" lon="5.87032">
        <ele>911.94799804688</ele>
        <time>2012-05-13T09:09:00Z</time>
      </trkpt>
      <trkpt lat="43.3245" lon="5.87032">
        <ele>911.46728515625</ele>
        <time>2012-05-13T09:09:44Z</time>
      </trkpt>
      <trkpt lat="43.32446" lon="5.87026">
        <ele>911.94799804688</ele>
        <time>2012-05-13T09:09:56Z</time>
      </trkpt>
      <trkpt lat="43.32446" lon="5.87028">
        <ele>911.46728515625</ele>
        <time>2012-05-13T09:10:11Z</time>
      </trkpt>
      <trkpt lat="43.32445" lon="5.87026">
        <ele>911.94799804688</ele>
        <time>2012-05-13T09:11:21Z</time>
      </trkpt>
      <trkpt lat="43.32445" lon="5.87027">
        <ele>911.94799804688</ele>
        <time>2012-05-13T09:11:45Z</time>
      </trkpt>
      <trkpt lat="43.3244" lon="5.87035">
        <ele>910.505859375</ele>
        <time>2012-05-13T09:11:51Z</time>
      </trkpt>
      <trkpt lat="43.32433" lon="5.87042">
        <ele>910.02514648438</ele>
        <time>2012-05-13T09:11:57Z</time>
      </trkpt>
      <trkpt lat="43.32431" lon="5.87054">
        <ele>908.10278320312</ele>
        <time>2012-05-13T09:12:05Z</time>
      </trkpt>
      <trkpt lat="43.32429" lon="5.87063">
        <ele>906.66040039062</ele>
        <time>2012-05-13T09:12:16Z</time>
      </trkpt>
      <trkpt lat="43.32428" lon="5.87068">
        <ele>905.69921875</ele>
        <time>2012-05-13T09:12:21Z</time>
      </trkpt>
      <trkpt lat="43.32427" lon="5.87073">
        <ele>904.73779296875</ele>
        <time>2012-05-13T09:12:26Z</time>
      </trkpt>
      <trkpt lat="43.32419" lon="5.87087">
        <ele>902.81518554688</ele>
        <time>2012-05-13T09:12:35Z</time>
      </trkpt>
      <trkpt lat="43.32419" lon="5.87096">
        <ele>902.33447265625</ele>
        <time>2012-05-13T09:12:38Z</time>
      </trkpt>
      <trkpt lat="43.32404" lon="5.87114">
        <ele>901.37329101562</ele>
        <time>2012-05-13T09:12:46Z</time>
      </trkpt>
      <trkpt lat="43.32396" lon="5.8713">
        <ele>899.45068359375</ele>
        <time>2012-05-13T09:12:59Z</time>
      </trkpt>
      <trkpt lat="43.32391" lon="5.87143">
        <ele>898.96997070312</ele>
        <time>2012-05-13T09:13:07Z</time>
      </trkpt>
      <trkpt lat="43.32384" lon="5.87152">
        <ele>900.412109375</ele>
        <time>2012-05-13T09:13:25Z</time>
      </trkpt>
      <trkpt lat="43.32376" lon="5.87158">
        <ele>899.93139648438</ele>
        <time>2012-05-13T09:13:41Z</time>
      </trkpt>
      <trkpt lat="43.32365" lon="5.87165">
        <ele>898.96997070312</ele>
        <time>2012-05-13T09:13:50Z</time>
      </trkpt>
      <trkpt lat="43.32363" lon="5.87169">
        <ele>898.4892578125</ele>
        <time>2012-05-13T09:13:52Z</time>
      </trkpt>
      <trkpt lat="43.32363" lon="5.87173">
        <ele>898.0087890625</ele>
        <time>2012-05-13T09:13:54Z</time>
      </trkpt>
      <trkpt lat="43.32349" lon="5.87199">
        <ele>896.08618164062</ele>
        <time>2012-05-13T09:14:03Z</time>
      </trkpt>
      <trkpt lat="43.32344" lon="5.87205">
        <ele>895.12475585938</ele>
        <time>2012-05-13T09:14:06Z</time>
      </trkpt>
      <trkpt lat="43.32337" lon="5.87226">
        <ele>893.68286132812</ele>
        <time>2012-05-13T09:14:11Z</time>
      </trkpt>
      <trkpt lat="43.32327" lon="5.87247">
        <ele>892.24096679688</ele>
        <time>2012-05-13T09:14:16Z</time>
      </trkpt>
      <trkpt lat="43.3231" lon="5.87285">
        <ele>888.3955078125</ele>
        <time>2012-05-13T09:14:24Z</time>
      </trkpt>
      <trkpt lat="43.32307" lon="5.87292">
        <ele>887.91479492188</ele>
        <time>2012-05-13T09:14:26Z</time>
      </trkpt>
      <trkpt lat="43.32296" lon="5.87312">
        <ele>884.06958007812</ele>
        <time>2012-05-13T09:14:33Z</time>
      </trkpt>
      <trkpt lat="43.32292" lon="5.87318">
        <ele>883.5888671875</ele>
        <time>2012-05-13T09:14:35Z</time>
      </trkpt>
      <trkpt lat="43.32286" lon="5.87326">
        <ele>882.14697265625</ele>
        <time>2012-05-13T09:14:38Z</time>
      </trkpt>
      <trkpt lat="43.32284" lon="5.87335">
        <ele>881.18579101562</ele>
        <time>2012-05-13T09:14:41Z</time>
      </trkpt>
      <trkpt lat="43.32277" lon="5.87343">
        <ele>880.22436523438</ele>
        <time>2012-05-13T09:14:46Z</time>
      </trkpt>
      <trkpt lat="43.32273" lon="5.87352">
        <ele>879.26293945312</ele>
        <time>2012-05-13T09:14:49Z</time>
      </trkpt>
      <trkpt lat="43.32258" lon="5.87382">
        <ele>878.3017578125</ele>
        <time>2012-05-13T09:14:59Z</time>
      </trkpt>
      <trkpt lat="43.32257" lon="5.87386">
        <ele>877.82104492188</ele>
        <time>2012-05-13T09:15:01Z</time>
      </trkpt>
      <trkpt lat="43.32252" lon="5.87394">
        <ele>877.34057617188</ele>
        <time>2012-05-13T09:15:05Z</time>
      </trkpt>
      <trkpt lat="43.32245" lon="5.87414">
        <ele>876.85986328125</ele>
        <time>2012-05-13T09:15:14Z</time>
      </trkpt>
      <trkpt lat="43.32221" lon="5.87457">
        <ele>875.41748046875</ele>
        <time>2012-05-13T09:15:29Z</time>
      </trkpt>
      <trkpt lat="43.32214" lon="5.87469">
        <ele>874.93701171875</ele>
        <time>2012-05-13T09:15:35Z</time>
      </trkpt>
      <trkpt lat="43.322" lon="5.87498">
        <ele>871.572265625</ele>
        <time>2012-05-13T09:15:46Z</time>
      </trkpt>
      <trkpt lat="43.322" lon="5.87502">
        <ele>871.572265625</ele>
        <time>2012-05-13T09:15:47Z</time>
      </trkpt>
      <trkpt lat="43.32197" lon="5.87514">
        <ele>870.61108398438</ele>
        <time>2012-05-13T09:15:50Z</time>
      </trkpt>
      <trkpt lat="43.32184" lon="5.87538">
        <ele>869.16918945312</ele>
        <time>2012-05-13T09:15:58Z</time>
      </trkpt>
      <trkpt lat="43.32169" lon="5.87581">
        <ele>868.20776367188</ele>
        <time>2012-05-13T09:16:10Z</time>
      </trkpt>
      <trkpt lat="43.32154" lon="5.87636">
        <ele>865.8046875</ele>
        <time>2012-05-13T09:16:22Z</time>
      </trkpt>
      <trkpt lat="43.3215" lon="5.87663">
        <ele>862.43994140625</ele>
        <time>2012-05-13T09:16:30Z</time>
      </trkpt>
      <trkpt lat="43.3215" lon="5.87666">
        <ele>861.95947265625</ele>
        <time>2012-05-13T09:16:31Z</time>
      </trkpt>
      <trkpt lat="43.32144" lon="5.87686">
        <ele>860.03662109375</ele>
        <time>2012-05-13T09:16:37Z</time>
      </trkpt>
      <trkpt lat="43.32143" lon="5.87696">
        <ele>859.55590820312</ele>
        <time>2012-05-13T09:16:41Z</time>
      </trkpt>
      <trkpt lat="43.32137" lon="5.87706">
        <ele>857.63330078125</ele>
        <time>2012-05-13T09:16:44Z</time>
      </trkpt>
      <trkpt lat="43.32135" lon="5.8771">
        <ele>857.63330078125</ele>
        <time>2012-05-13T09:16:46Z</time>
      </trkpt>
      <trkpt lat="43.32134" lon="5.87715">
        <ele>857.15258789062</ele>
        <time>2012-05-13T09:16:49Z</time>
      </trkpt>
      <trkpt lat="43.32135" lon="5.87724">
        <ele>855.22998046875</ele>
        <time>2012-05-13T09:17:01Z</time>
      </trkpt>
      <trkpt lat="43.32134" lon="5.87726">
        <ele>855.22998046875</ele>
        <time>2012-05-13T09:17:08Z</time>
      </trkpt>
      <trkpt lat="43.32132" lon="5.87734">
        <ele>854.26879882812</ele>
        <time>2012-05-13T09:17:12Z</time>
      </trkpt>
      <trkpt lat="43.32125" lon="5.87739">
        <ele>853.30737304688</ele>
        <time>2012-05-13T09:17:15Z</time>
      </trkpt>
      <trkpt lat="43.32119" lon="5.87757">
        <ele>851.86547851562</ele>
        <time>2012-05-13T09:17:23Z</time>
      </trkpt>
      <trkpt lat="43.32117" lon="5.87762">
        <ele>851.384765625</ele>
        <time>2012-05-13T09:17:25Z</time>
      </trkpt>
      <trkpt lat="43.32112" lon="5.8778">
        <ele>849.46215820312</ele>
        <time>2012-05-13T09:17:29Z</time>
      </trkpt>
      <trkpt lat="43.32105" lon="5.87798">
        <ele>848.02026367188</ele>
        <time>2012-05-13T09:17:34Z</time>
      </trkpt>
      <trkpt lat="43.32103" lon="5.87804">
        <ele>847.05883789062</ele>
        <time>2012-05-13T09:17:36Z</time>
      </trkpt>
      <trkpt lat="43.32097" lon="5.87823">
        <ele>847.05883789062</ele>
        <time>2012-05-13T09:17:41Z</time>
      </trkpt>
      <trkpt lat="43.32091" lon="5.87844">
        <ele>846.09765625</ele>
        <time>2012-05-13T09:17:50Z</time>
      </trkpt>
      <trkpt lat="43.32085" lon="5.87847">
        <ele>847.05883789062</ele>
        <time>2012-05-13T09:17:52Z</time>
      </trkpt>
      <trkpt lat="43.32064" lon="5.87867">
        <ele>847.05883789062</ele>
        <time>2012-05-13T09:18:03Z</time>
      </trkpt>
      <trkpt lat="43.32059" lon="5.87878">
        <ele>846.57836914062</ele>
        <time>2012-05-13T09:18:08Z</time>
      </trkpt>
      <trkpt lat="43.32049" lon="5.8792">
        <ele>847.05883789062</ele>
        <time>2012-05-13T09:18:20Z</time>
      </trkpt>
      <trkpt lat="43.32045" lon="5.87927">
        <ele>846.57836914062</ele>
        <time>2012-05-13T09:18:28Z</time>
      </trkpt>
      <trkpt lat="43.32039" lon="5.87923">
        <ele>846.57836914062</ele>
        <time>2012-05-13T09:18:32Z</time>
      </trkpt>
      <trkpt lat="43.32037" lon="5.87918">
        <ele>846.57836914062</ele>
        <time>2012-05-13T09:18:38Z</time>
      </trkpt>
      <trkpt lat="43.3202" lon="5.87915">
        <ele>844.65551757812</ele>
        <time>2012-05-13T09:18:45Z</time>
      </trkpt>
      <trkpt lat="43.32005" lon="5.87904">
        <ele>843.21337890625</ele>
        <time>2012-05-13T09:18:49Z</time>
      </trkpt>
      <trkpt lat="43.31997" lon="5.879">
        <ele>842.25219726562</ele>
        <time>2012-05-13T09:18:51Z</time>
      </trkpt>
      <trkpt lat="43.31991" lon="5.87893">
        <ele>841.29077148438</ele>
        <time>2012-05-13T09:18:53Z</time>
      </trkpt>
      <trkpt lat="43.31952" lon="5.87884">
        <ele>842.73291015625</ele>
        <time>2012-05-13T09:19:03Z</time>
      </trkpt>
      <trkpt lat="43.31945" lon="5.87875">
        <ele>844.17504882812</ele>
        <time>2012-05-13T09:19:07Z</time>
      </trkpt>
      <trkpt lat="43.31939" lon="5.87861">
        <ele>846.57836914062</ele>
        <time>2012-05-13T09:19:12Z</time>
      </trkpt>
      <trkpt lat="43.31934" lon="5.87839">
        <ele>848.02026367188</ele>
        <time>2012-05-13T09:19:21Z</time>
      </trkpt>
      <trkpt lat="43.31935" lon="5.87827">
        <ele>848.50073242188</ele>
        <time>2012-05-13T09:19:26Z</time>
      </trkpt>
      <trkpt lat="43.3194" lon="5.87819">
        <ele>848.9814453125</ele>
        <time>2012-05-13T09:19:31Z</time>
      </trkpt>
      <trkpt lat="43.31937" lon="5.878">
        <ele>849.46215820312</ele>
        <time>2012-05-13T09:19:41Z</time>
      </trkpt>
      <trkpt lat="43.31935" lon="5.87767">
        <ele>851.384765625</ele>
        <time>2012-05-13T09:19:56Z</time>
      </trkpt>
      <trkpt lat="43.31914" lon="5.87766">
        <ele>849.94287109375</ele>
        <time>2012-05-13T09:20:07Z</time>
      </trkpt>
      <trkpt lat="43.31909" lon="5.87769">
        <ele>849.46215820312</ele>
        <time>2012-05-13T09:20:09Z</time>
      </trkpt>
      <trkpt lat="43.31896" lon="5.87766">
        <ele>848.50073242188</ele>
        <time>2012-05-13T09:20:13Z</time>
      </trkpt>
      <trkpt lat="43.31879" lon="5.87738">
        <ele>848.9814453125</ele>
        <time>2012-05-13T09:20:23Z</time>
      </trkpt>
      <trkpt lat="43.31864" lon="5.87728">
        <ele>847.53955078125</ele>
        <time>2012-05-13T09:20:28Z</time>
      </trkpt>
      <trkpt lat="43.31857" lon="5.87728">
        <ele>846.09765625</ele>
        <time>2012-05-13T09:20:30Z</time>
      </trkpt>
      <trkpt lat="43.31849" lon="5.87727">
        <ele>845.13623046875</ele>
        <time>2012-05-13T09:20:34Z</time>
      </trkpt>
      <trkpt lat="43.31847" lon="5.87728">
        <ele>844.65551757812</ele>
        <time>2012-05-13T09:20:42Z</time>
      </trkpt>
      <trkpt lat="43.31847" lon="5.87737">
        <ele>844.17504882812</ele>
        <time>2012-05-13T09:20:51Z</time>
      </trkpt>
      <trkpt lat="43.31842" lon="5.87766">
        <ele>842.73291015625</ele>
        <time>2012-05-13T09:20:59Z</time>
      </trkpt>
      <trkpt lat="43.3184" lon="5.87778">
        <ele>842.25219726562</ele>
        <time>2012-05-13T09:21:01Z</time>
      </trkpt>
      <trkpt lat="43.31833" lon="5.87805">
        <ele>839.84887695312</ele>
        <time>2012-05-13T09:21:05Z</time>
      </trkpt>
      <trkpt lat="43.31829" lon="5.87819">
        <ele>838.8876953125</ele>
        <time>2012-05-13T09:21:07Z</time>
      </trkpt>
      <trkpt lat="43.31824" lon="5.87832">
        <ele>837.92626953125</ele>
        <time>2012-05-13T09:21:09Z</time>
      </trkpt>
      <trkpt lat="43.31817" lon="5.87855">
        <ele>835.04248046875</ele>
        <time>2012-05-13T09:21:12Z</time>
      </trkpt>
      <trkpt lat="43.31814" lon="5.87864">
        <ele>834.56176757812</ele>
        <time>2012-05-13T09:21:13Z</time>
      </trkpt>
      <trkpt lat="43.31813" lon="5.87873">
        <ele>834.0810546875</ele>
        <time>2012-05-13T09:21:14Z</time>
      </trkpt>
      <trkpt lat="43.31811" lon="5.87911">
        <ele>831.677734375</ele>
        <time>2012-05-13T09:21:18Z</time>
      </trkpt>
      <trkpt lat="43.31812" lon="5.87921">
        <ele>831.677734375</ele>
        <time>2012-05-13T09:21:19Z</time>
      </trkpt>
      <trkpt lat="43.31799" lon="5.87945">
        <ele>829.2744140625</ele>
        <time>2012-05-13T09:21:24Z</time>
      </trkpt>
      <trkpt lat="43.31795" lon="5.87945">
        <ele>829.75512695312</ele>
        <time>2012-05-13T09:21:25Z</time>
      </trkpt>
      <trkpt lat="43.31789" lon="5.87971">
        <ele>826.39038085938</ele>
        <time>2012-05-13T09:21:32Z</time>
      </trkpt>
      <trkpt lat="43.31801" lon="5.88042">
        <ele>825.42895507812</ele>
        <time>2012-05-13T09:21:46Z</time>
      </trkpt>
      <trkpt lat="43.31804" lon="5.88053">
        <ele>825.90966796875</ele>
        <time>2012-05-13T09:21:49Z</time>
      </trkpt>
      <trkpt lat="43.31812" lon="5.88061">
        <ele>826.39038085938</ele>
        <time>2012-05-13T09:21:54Z</time>
      </trkpt>
      <trkpt lat="43.31835" lon="5.88083">
        <ele>827.83227539062</ele>
        <time>2012-05-13T09:22:07Z</time>
      </trkpt>
      <trkpt lat="43.31842" lon="5.88084">
        <ele>827.83227539062</ele>
        <time>2012-05-13T09:22:10Z</time>
      </trkpt>
      <trkpt lat="43.31848" lon="5.881">
        <ele>827.35180664062</ele>
        <time>2012-05-13T09:22:15Z</time>
      </trkpt>
      <trkpt lat="43.31849" lon="5.8811">
        <ele>826.39038085938</ele>
        <time>2012-05-13T09:22:17Z</time>
      </trkpt>
      <trkpt lat="43.31855" lon="5.88129">
        <ele>825.90966796875</ele>
        <time>2012-05-13T09:22:21Z</time>
      </trkpt>
      <trkpt lat="43.31881" lon="5.8816">
        <ele>826.87109375</ele>
        <time>2012-05-13T09:22:32Z</time>
      </trkpt>
      <trkpt lat="43.31886" lon="5.88169">
        <ele>826.39038085938</ele>
        <time>2012-05-13T09:22:34Z</time>
      </trkpt>
      <trkpt lat="43.31893" lon="5.88191">
        <ele>824.4677734375</ele>
        <time>2012-05-13T09:22:38Z</time>
      </trkpt>
      <trkpt lat="43.31891" lon="5.88212">
        <ele>823.50659179688</ele>
        <time>2012-05-13T09:22:42Z</time>
      </trkpt>
      <trkpt lat="43.31888" lon="5.88224">
        <ele>822.54516601562</ele>
        <time>2012-05-13T09:22:44Z</time>
      </trkpt>
      <trkpt lat="43.31888" lon="5.88235">
        <ele>822.064453125</ele>
        <time>2012-05-13T09:22:46Z</time>
      </trkpt>
      <trkpt lat="43.31895" lon="5.88253">
        <ele>820.14184570312</ele>
        <time>2012-05-13T09:22:50Z</time>
      </trkpt>
      <trkpt lat="43.31897" lon="5.88321">
        <ele>818.69995117188</ele>
        <time>2012-05-13T09:23:03Z</time>
      </trkpt>
      <trkpt lat="43.31891" lon="5.88329">
        <ele>818.69995117188</ele>
        <time>2012-05-13T09:23:07Z</time>
      </trkpt>
      <trkpt lat="43.3189" lon="5.88339">
        <ele>819.66137695312</ele>
        <time>2012-05-13T09:23:12Z</time>
      </trkpt>
      <trkpt lat="43.31892" lon="5.88349">
        <ele>820.14184570312</ele>
        <time>2012-05-13T09:23:15Z</time>
      </trkpt>
      <trkpt lat="43.3189" lon="5.88381">
        <ele>822.064453125</ele>
        <time>2012-05-13T09:23:24Z</time>
      </trkpt>
      <trkpt lat="43.31883" lon="5.88391">
        <ele>821.58374023438</ele>
        <time>2012-05-13T09:23:28Z</time>
      </trkpt>
      <trkpt lat="43.31878" lon="5.88418">
        <ele>821.58374023438</ele>
        <time>2012-05-13T09:23:36Z</time>
      </trkpt>
      <trkpt lat="43.31866" lon="5.88441">
        <ele>820.62255859375</ele>
        <time>2012-05-13T09:23:46Z</time>
      </trkpt>
      <trkpt lat="43.31865" lon="5.88445">
        <ele>820.62255859375</ele>
        <time>2012-05-13T09:23:47Z</time>
      </trkpt>
      <trkpt lat="43.31854" lon="5.885">
        <ele>820.14184570312</ele>
        <time>2012-05-13T09:24:00Z</time>
      </trkpt>
      <trkpt lat="43.31856" lon="5.88554">
        <ele>821.58374023438</ele>
        <time>2012-05-13T09:24:11Z</time>
      </trkpt>
      <trkpt lat="43.31856" lon="5.88566">
        <ele>823.02587890625</ele>
        <time>2012-05-13T09:24:14Z</time>
      </trkpt>
      <trkpt lat="43.31855" lon="5.88568">
        <ele>823.02587890625</ele>
        <time>2012-05-13T09:24:15Z</time>
      </trkpt>
      <trkpt lat="43.31839" lon="5.88577">
        <ele>821.10327148438</ele>
        <time>2012-05-13T09:24:22Z</time>
      </trkpt>
      <trkpt lat="43.31818" lon="5.88596">
        <ele>819.1806640625</ele>
        <time>2012-05-13T09:24:32Z</time>
      </trkpt>
      <trkpt lat="43.31816" lon="5.88602">
        <ele>818.21923828125</ele>
        <time>2012-05-13T09:24:34Z</time>
      </trkpt>
      <trkpt lat="43.3182" lon="5.88624">
        <ele>817.73852539062</ele>
        <time>2012-05-13T09:24:40Z</time>
      </trkpt>
      <trkpt lat="43.31819" lon="5.88635">
        <ele>817.73852539062</ele>
        <time>2012-05-13T09:24:43Z</time>
      </trkpt>
      <trkpt lat="43.31829" lon="5.88665">
        <ele>816.29663085938</ele>
        <time>2012-05-13T09:24:51Z</time>
      </trkpt>
      <trkpt lat="43.31832" lon="5.8867">
        <ele>815.33544921875</ele>
        <time>2012-05-13T09:24:53Z</time>
      </trkpt>
      <trkpt lat="43.31833" lon="5.88707">
        <ele>817.25805664062</ele>
        <time>2012-05-13T09:25:02Z</time>
      </trkpt>
      <trkpt lat="43.31832" lon="5.88731">
        <ele>817.25805664062</ele>
        <time>2012-05-13T09:25:09Z</time>
      </trkpt>
      <trkpt lat="43.3183" lon="5.8877">
        <ele>814.3740234375</ele>
        <time>2012-05-13T09:25:19Z</time>
      </trkpt>
      <trkpt lat="43.31829" lon="5.88778">
        <ele>813.89331054688</ele>
        <time>2012-05-13T09:25:22Z</time>
      </trkpt>
      <trkpt lat="43.31831" lon="5.88795">
        <ele>811.48999023438</ele>
        <time>2012-05-13T09:25:28Z</time>
      </trkpt>
      <trkpt lat="43.31831" lon="5.88803">
        <ele>809.08666992188</ele>
        <time>2012-05-13T09:25:32Z</time>
      </trkpt>
      <trkpt lat="43.31832" lon="5.88812">
        <ele>806.68334960938</ele>
        <time>2012-05-13T09:25:38Z</time>
      </trkpt>
      <trkpt lat="43.31831" lon="5.88819">
        <ele>804.7607421875</ele>
        <time>2012-05-13T09:25:42Z</time>
      </trkpt>
      <trkpt lat="43.31829" lon="5.88828">
        <ele>803.31884765625</ele>
        <time>2012-05-13T09:25:45Z</time>
      </trkpt>
      <trkpt lat="43.31829" lon="5.88842">
        <ele>806.68334960938</ele>
        <time>2012-05-13T09:25:56Z</time>
      </trkpt>
      <trkpt lat="43.31829" lon="5.8885">
        <ele>807.64477539062</ele>
        <time>2012-05-13T09:26:05Z</time>
      </trkpt>
      <trkpt lat="43.31829" lon="5.88857">
        <ele>809.08666992188</ele>
        <time>2012-05-13T09:26:15Z</time>
      </trkpt>
      <trkpt lat="43.31832" lon="5.88868">
        <ele>809.5673828125</ele>
        <time>2012-05-13T09:26:34Z</time>
      </trkpt>
      <trkpt lat="43.31835" lon="5.88876">
        <ele>811.00927734375</ele>
        <time>2012-05-13T09:26:45Z</time>
      </trkpt>
      <trkpt lat="43.31839" lon="5.88909">
        <ele>811.970703125</ele>
        <time>2012-05-13T09:26:59Z</time>
      </trkpt>
      <trkpt lat="43.31846" lon="5.8894">
        <ele>811.00927734375</ele>
        <time>2012-05-13T09:27:12Z</time>
      </trkpt>
      <trkpt lat="43.31858" lon="5.88966">
        <ele>808.12548828125</ele>
        <time>2012-05-13T09:27:21Z</time>
      </trkpt>
      <trkpt lat="43.31863" lon="5.88979">
        <ele>809.08666992188</ele>
        <time>2012-05-13T09:27:30Z</time>
      </trkpt>
      <trkpt lat="43.31863" lon="5.88979">
        <ele>809.5673828125</ele>
        <time>2012-05-13T09:27:58Z</time>
      </trkpt>
      <trkpt lat="43.31858" lon="5.88988">
        <ele>807.1640625</ele>
        <time>2012-05-13T09:28:02Z</time>
      </trkpt>
      <trkpt lat="43.31859" lon="5.89008">
        <ele>807.64477539062</ele>
        <time>2012-05-13T09:28:09Z</time>
      </trkpt>
      <trkpt lat="43.31862" lon="5.89019">
        <ele>809.08666992188</ele>
        <time>2012-05-13T09:28:13Z</time>
      </trkpt>
      <trkpt lat="43.31865" lon="5.8903">
        <ele>811.00927734375</ele>
        <time>2012-05-13T09:28:18Z</time>
      </trkpt>
      <trkpt lat="43.31864" lon="5.89036">
        <ele>811.00927734375</ele>
        <time>2012-05-13T09:28:20Z</time>
      </trkpt>
      <trkpt lat="43.31865" lon="5.89045">
        <ele>810.52856445312</ele>
        <time>2012-05-13T09:28:24Z</time>
      </trkpt>
      <trkpt lat="43.31866" lon="5.89051">
        <ele>811.00927734375</ele>
        <time>2012-05-13T09:28:30Z</time>
      </trkpt>
      <trkpt lat="43.31866" lon="5.89062">
        <ele>811.00927734375</ele>
        <time>2012-05-13T09:28:40Z</time>
      </trkpt>
      <trkpt lat="43.31866" lon="5.89066">
        <ele>810.52856445312</ele>
        <time>2012-05-13T09:28:48Z</time>
      </trkpt>
      <trkpt lat="43.31865" lon="5.89069">
        <ele>809.5673828125</ele>
        <time>2012-05-13T09:28:52Z</time>
      </trkpt>
      <trkpt lat="43.31863" lon="5.89072">
        <ele>808.60595703125</ele>
        <time>2012-05-13T09:28:55Z</time>
      </trkpt>
      <trkpt lat="43.31864" lon="5.89093">
        <ele>807.1640625</ele>
        <time>2012-05-13T09:29:02Z</time>
      </trkpt>
      <trkpt lat="43.31864" lon="5.89104">
        <ele>806.68334960938</ele>
        <time>2012-05-13T09:29:17Z</time>
      </trkpt>
      <trkpt lat="43.31865" lon="5.89115">
        <ele>805.24145507812</ele>
        <time>2012-05-13T09:29:27Z</time>
      </trkpt>
      <trkpt lat="43.31864" lon="5.89119">
        <ele>804.2802734375</ele>
        <time>2012-05-13T09:29:29Z</time>
      </trkpt>
      <trkpt lat="43.31866" lon="5.89131">
        <ele>800.91552734375</ele>
        <time>2012-05-13T09:29:41Z</time>
      </trkpt>
      <trkpt lat="43.31865" lon="5.89138">
        <ele>798.99291992188</ele>
        <time>2012-05-13T09:29:55Z</time>
      </trkpt>
      <trkpt lat="43.31866" lon="5.89146">
        <ele>795.62817382812</ele>
        <time>2012-05-13T09:30:10Z</time>
      </trkpt>
      <trkpt lat="43.31866" lon="5.8915">
        <ele>794.66674804688</ele>
        <time>2012-05-13T09:30:12Z</time>
      </trkpt>
      <trkpt lat="43.31867" lon="5.89159">
        <ele>792.74438476562</ele>
        <time>2012-05-13T09:30:24Z</time>
      </trkpt>
      <trkpt lat="43.31867" lon="5.89164">
        <ele>791.78295898438</ele>
        <time>2012-05-13T09:30:32Z</time>
      </trkpt>
      <trkpt lat="43.31867" lon="5.89171">
        <ele>790.34106445312</ele>
        <time>2012-05-13T09:30:35Z</time>
      </trkpt>
      <trkpt lat="43.31867" lon="5.89181">
        <ele>788.89916992188</ele>
        <time>2012-05-13T09:30:41Z</time>
      </trkpt>
      <trkpt lat="43.31862" lon="5.892">
        <ele>786.97631835938</ele>
        <time>2012-05-13T09:30:54Z</time>
      </trkpt>
      <trkpt lat="43.31861" lon="5.89199">
        <ele>786.97631835938</ele>
        <time>2012-05-13T09:31:01Z</time>
      </trkpt>
      <trkpt lat="43.31864" lon="5.89209">
        <ele>786.49584960938</ele>
        <time>2012-05-13T09:31:06Z</time>
      </trkpt>
      <trkpt lat="43.31869" lon="5.89216">
        <ele>786.01513671875</ele>
        <time>2012-05-13T09:31:09Z</time>
      </trkpt>
      <trkpt lat="43.31872" lon="5.89226">
        <ele>785.53442382812</ele>
        <time>2012-05-13T09:31:14Z</time>
      </trkpt>
      <trkpt lat="43.31872" lon="5.89232">
        <ele>783.61181640625</ele>
        <time>2012-05-13T09:31:18Z</time>
      </trkpt>
      <trkpt lat="43.31871" lon="5.89237">
        <ele>782.169921875</ele>
        <time>2012-05-13T09:31:21Z</time>
      </trkpt>
      <trkpt lat="43.31872" lon="5.89242">
        <ele>780.72802734375</ele>
        <time>2012-05-13T09:31:24Z</time>
      </trkpt>
      <trkpt lat="43.3187" lon="5.89246">
        <ele>778.80517578125</ele>
        <time>2012-05-13T09:31:37Z</time>
      </trkpt>
      <trkpt lat="43.31866" lon="5.89253">
        <ele>775.4404296875</ele>
        <time>2012-05-13T09:31:50Z</time>
      </trkpt>
      <trkpt lat="43.31865" lon="5.89256">
        <ele>774.47924804688</ele>
        <time>2012-05-13T09:31:52Z</time>
      </trkpt>
      <trkpt lat="43.31861" lon="5.89266">
        <ele>772.07592773438</ele>
        <time>2012-05-13T09:31:58Z</time>
      </trkpt>
      <trkpt lat="43.31859" lon="5.89277">
        <ele>769.19213867188</ele>
        <time>2012-05-13T09:32:02Z</time>
      </trkpt>
      <trkpt lat="43.31857" lon="5.89285">
        <ele>767.75</ele>
        <time>2012-05-13T09:32:05Z</time>
      </trkpt>
      <trkpt lat="43.31848" lon="5.893">
        <ele>764.8662109375</ele>
        <time>2012-05-13T09:32:13Z</time>
      </trkpt>
      <trkpt lat="43.31828" lon="5.8933">
        <ele>763.42407226562</ele>
        <time>2012-05-13T09:32:25Z</time>
      </trkpt>
      <trkpt lat="43.31825" lon="5.89334">
        <ele>762.943359375</ele>
        <time>2012-05-13T09:32:34Z</time>
      </trkpt>
      <trkpt lat="43.31822" lon="5.89335">
        <ele>761.98217773438</ele>
        <time>2012-05-13T09:32:39Z</time>
      </trkpt>
      <trkpt lat="43.31813" lon="5.89348">
        <ele>759.57885742188</ele>
        <time>2012-05-13T09:32:46Z</time>
      </trkpt>
      <trkpt lat="43.31804" lon="5.89351">
        <ele>758.13696289062</ele>
        <time>2012-05-13T09:32:51Z</time>
      </trkpt>
      <trkpt lat="43.31801" lon="5.89353">
        <ele>756.69482421875</ele>
        <time>2012-05-13T09:32:53Z</time>
      </trkpt>
      <trkpt lat="43.31798" lon="5.89364">
        <ele>754.77221679688</ele>
        <time>2012-05-13T09:32:58Z</time>
      </trkpt>
      <trkpt lat="43.31799" lon="5.89368">
        <ele>754.77221679688</ele>
        <time>2012-05-13T09:33:02Z</time>
      </trkpt>
      <trkpt lat="43.31797" lon="5.89376">
        <ele>752.849609375</ele>
        <time>2012-05-13T09:33:07Z</time>
      </trkpt>
      <trkpt lat="43.31793" lon="5.89386">
        <ele>750.44653320312</ele>
        <time>2012-05-13T09:33:19Z</time>
      </trkpt>
      <trkpt lat="43.31785" lon="5.8939">
        <ele>748.04321289062</ele>
        <time>2012-05-13T09:33:23Z</time>
      </trkpt>
      <trkpt lat="43.31782" lon="5.89389">
        <ele>747.56225585938</ele>
        <time>2012-05-13T09:33:24Z</time>
      </trkpt>
      <trkpt lat="43.31776" lon="5.89393">
        <ele>746.60107421875</ele>
        <time>2012-05-13T09:33:34Z</time>
      </trkpt>
      <trkpt lat="43.31776" lon="5.89393">
        <ele>746.60107421875</ele>
        <time>2012-05-13T09:33:36Z</time>
      </trkpt>
      <trkpt lat="43.31776" lon="5.89436">
        <ele>742.27514648438</ele>
        <time>2012-05-13T09:33:48Z</time>
      </trkpt>
      <trkpt lat="43.3177" lon="5.89459">
        <ele>741.31372070312</ele>
        <time>2012-05-13T09:33:52Z</time>
      </trkpt>
      <trkpt lat="43.31768" lon="5.89481">
        <ele>738.91064453125</ele>
        <time>2012-05-13T09:33:55Z</time>
      </trkpt>
      <trkpt lat="43.31772" lon="5.89505">
        <ele>736.98779296875</ele>
        <time>2012-05-13T09:33:58Z</time>
      </trkpt>
      <trkpt lat="43.31773" lon="5.89531">
        <ele>735.5458984375</ele>
        <time>2012-05-13T09:34:01Z</time>
      </trkpt>
      <trkpt lat="43.31784" lon="5.89569">
        <ele>735.0654296875</ele>
        <time>2012-05-13T09:34:06Z</time>
      </trkpt>
      <trkpt lat="43.31797" lon="5.89642">
        <ele>732.662109375</ele>
        <time>2012-05-13T09:34:18Z</time>
      </trkpt>
      <trkpt lat="43.31808" lon="5.89678">
        <ele>731.21997070312</ele>
        <time>2012-05-13T09:34:25Z</time>
      </trkpt>
      <trkpt lat="43.31812" lon="5.89711">
        <ele>727.85522460938</ele>
        <time>2012-05-13T09:34:30Z</time>
      </trkpt>
      <trkpt lat="43.31813" lon="5.89728">
        <ele>727.37475585938</ele>
        <time>2012-05-13T09:34:32Z</time>
      </trkpt>
      <trkpt lat="43.31799" lon="5.89764">
        <ele>726.89404296875</ele>
        <time>2012-05-13T09:34:38Z</time>
      </trkpt>
      <trkpt lat="43.31779" lon="5.89776">
        <ele>726.41333007812</ele>
        <time>2012-05-13T09:34:43Z</time>
      </trkpt>
      <trkpt lat="43.31768" lon="5.89769">
        <ele>725.9326171875</ele>
        <time>2012-05-13T09:34:47Z</time>
      </trkpt>
      <trkpt lat="43.31759" lon="5.89746">
        <ele>725.9326171875</ele>
        <time>2012-05-13T09:34:54Z</time>
      </trkpt>
      <trkpt lat="43.31753" lon="5.89737">
        <ele>725.9326171875</ele>
        <time>2012-05-13T09:35:00Z</time>
      </trkpt>
      <trkpt lat="43.31749" lon="5.89738">
        <ele>725.45190429688</ele>
        <time>2012-05-13T09:35:05Z</time>
      </trkpt>
      <trkpt lat="43.31753" lon="5.89742">
        <ele>724.97143554688</ele>
        <time>2012-05-13T09:35:08Z</time>
      </trkpt>
      <trkpt lat="43.31773" lon="5.89759">
        <ele>726.41333007812</ele>
        <time>2012-05-13T09:35:21Z</time>
      </trkpt>
      <trkpt lat="43.31779" lon="5.89772">
        <ele>726.41333007812</ele>
        <time>2012-05-13T09:35:28Z</time>
      </trkpt>
      <trkpt lat="43.31768" lon="5.8977">
        <ele>725.9326171875</ele>
        <time>2012-05-13T09:35:35Z</time>
      </trkpt>
      <trkpt lat="43.31733" lon="5.89727">
        <ele>725.45190429688</ele>
        <time>2012-05-13T09:35:50Z</time>
      </trkpt>
      <trkpt lat="43.31701" lon="5.89704">
        <ele>725.9326171875</ele>
        <time>2012-05-13T09:36:03Z</time>
      </trkpt>
      <trkpt lat="43.31677" lon="5.89675">
        <ele>725.9326171875</ele>
        <time>2012-05-13T09:36:14Z</time>
      </trkpt>
      <trkpt lat="43.31641" lon="5.89642">
        <ele>724.97143554688</ele>
        <time>2012-05-13T09:36:28Z</time>
      </trkpt>
      <trkpt lat="43.31599" lon="5.89616">
        <ele>724.01000976562</ele>
        <time>2012-05-13T09:36:42Z</time>
      </trkpt>
      <trkpt lat="43.31589" lon="5.89614">
        <ele>723.52954101562</ele>
        <time>2012-05-13T09:36:45Z</time>
      </trkpt>
      <trkpt lat="43.31556" lon="5.89591">
        <ele>722.56811523438</ele>
        <time>2012-05-13T09:36:55Z</time>
      </trkpt>
      <trkpt lat="43.31493" lon="5.89531">
        <ele>723.52954101562</ele>
        <time>2012-05-13T09:37:16Z</time>
      </trkpt>
      <trkpt lat="43.31454" lon="5.89484">
        <ele>723.048828125</ele>
        <time>2012-05-13T09:37:30Z</time>
      </trkpt>
      <trkpt lat="43.31421" lon="5.89423">
        <ele>724.49072265625</ele>
        <time>2012-05-13T09:37:46Z</time>
      </trkpt>
      <trkpt lat="43.31388" lon="5.89384">
        <ele>724.97143554688</ele>
        <time>2012-05-13T09:38:00Z</time>
      </trkpt>
      <trkpt lat="43.3137" lon="5.89364">
        <ele>724.49072265625</ele>
        <time>2012-05-13T09:38:06Z</time>
      </trkpt>
      <trkpt lat="43.31363" lon="5.8936">
        <ele>724.97143554688</ele>
        <time>2012-05-13T09:38:08Z</time>
      </trkpt>
      <trkpt lat="43.31315" lon="5.89318">
        <ele>724.97143554688</ele>
        <time>2012-05-13T09:38:24Z</time>
      </trkpt>
      <trkpt lat="43.31285" lon="5.89266">
        <ele>725.45190429688</ele>
        <time>2012-05-13T09:38:39Z</time>
      </trkpt>
      <trkpt lat="43.31268" lon="5.89209">
        <ele>726.41333007812</ele>
        <time>2012-05-13T09:38:54Z</time>
      </trkpt>
      <trkpt lat="43.31268" lon="5.89198">
        <ele>726.89404296875</ele>
        <time>2012-05-13T09:39:02Z</time>
      </trkpt>
      <trkpt lat="43.31265" lon="5.89199">
        <ele>725.45190429688</ele>
        <time>2012-05-13T09:39:16Z</time>
      </trkpt>
      <trkpt lat="43.31266" lon="5.89198">
        <ele>726.41333007812</ele>
        <time>2012-05-13T09:39:39Z</time>
      </trkpt>
      <trkpt lat="43.31267" lon="5.89199">
        <ele>726.41333007812</ele>
        <time>2012-05-13T09:39:40Z</time>
      </trkpt>
      <trkpt lat="43.31268" lon="5.89216">
        <ele>725.9326171875</ele>
        <time>2012-05-13T09:39:48Z</time>
      </trkpt>
      <trkpt lat="43.31235" lon="5.89213">
        <ele>725.45190429688</ele>
        <time>2012-05-13T09:40:00Z</time>
      </trkpt>
      <trkpt lat="43.31197" lon="5.89166">
        <ele>725.9326171875</ele>
        <time>2012-05-13T09:40:17Z</time>
      </trkpt>
      <trkpt lat="43.31158" lon="5.89111">
        <ele>728.3359375</ele>
        <time>2012-05-13T09:40:40Z</time>
      </trkpt>
      <trkpt lat="43.31137" lon="5.89082">
        <ele>730.25854492188</ele>
        <time>2012-05-13T09:40:56Z</time>
      </trkpt>
      <trkpt lat="43.3112" lon="5.89054">
        <ele>733.62329101562</ele>
        <time>2012-05-13T09:41:12Z</time>
      </trkpt>
      <trkpt lat="43.3111" lon="5.89036">
        <ele>735.5458984375</ele>
        <time>2012-05-13T09:41:24Z</time>
      </trkpt>
      <trkpt lat="43.31106" lon="5.89026">
        <ele>736.98779296875</ele>
        <time>2012-05-13T09:41:31Z</time>
      </trkpt>
      <trkpt lat="43.31099" lon="5.89012">
        <ele>738.42993164062</ele>
        <time>2012-05-13T09:41:40Z</time>
      </trkpt>
      <trkpt lat="43.31096" lon="5.89005">
        <ele>739.87182617188</ele>
        <time>2012-05-13T09:41:51Z</time>
      </trkpt>
      <trkpt lat="43.31095" lon="5.89003">
        <ele>739.87182617188</ele>
        <time>2012-05-13T09:42:04Z</time>
      </trkpt>
      <trkpt lat="43.31088" lon="5.88983">
        <ele>741.79443359375</ele>
        <time>2012-05-13T09:42:17Z</time>
      </trkpt>
      <trkpt lat="43.31082" lon="5.88974">
        <ele>742.755859375</ele>
        <time>2012-05-13T09:42:25Z</time>
      </trkpt>
      <trkpt lat="43.31077" lon="5.88966">
        <ele>743.71704101562</ele>
        <time>2012-05-13T09:42:33Z</time>
      </trkpt>
      <trkpt lat="43.31074" lon="5.88959">
        <ele>744.67822265625</ele>
        <time>2012-05-13T09:42:39Z</time>
      </trkpt>
      <trkpt lat="43.31073" lon="5.88954">
        <ele>745.15893554688</ele>
        <time>2012-05-13T09:42:50Z</time>
      </trkpt>
      <trkpt lat="43.31069" lon="5.88945">
        <ele>746.60107421875</ele>
        <time>2012-05-13T09:43:06Z</time>
      </trkpt>
      <trkpt lat="43.31067" lon="5.88939">
        <ele>747.56225585938</ele>
        <time>2012-05-13T09:43:22Z</time>
      </trkpt>
      <trkpt lat="43.31066" lon="5.88926">
        <ele>749.00439453125</ele>
        <time>2012-05-13T09:43:29Z</time>
      </trkpt>
      <trkpt lat="43.31065" lon="5.88922">
        <ele>749.48510742188</ele>
        <time>2012-05-13T09:43:32Z</time>
      </trkpt>
      <trkpt lat="43.31062" lon="5.8892">
        <ele>749.9658203125</ele>
        <time>2012-05-13T09:43:35Z</time>
      </trkpt>
      <trkpt lat="43.31055" lon="5.88908">
        <ele>751.88842773438</ele>
        <time>2012-05-13T09:43:46Z</time>
      </trkpt>
      <trkpt lat="43.31051" lon="5.88903">
        <ele>752.849609375</ele>
        <time>2012-05-13T09:43:51Z</time>
      </trkpt>
      <trkpt lat="43.31039" lon="5.88883">
        <ele>754.77221679688</ele>
        <time>2012-05-13T09:44:08Z</time>
      </trkpt>
      <trkpt lat="43.31025" lon="5.88867">
        <ele>757.17553710938</ele>
        <time>2012-05-13T09:44:23Z</time>
      </trkpt>
      <trkpt lat="43.31014" lon="5.88856">
        <ele>758.13696289062</ele>
        <time>2012-05-13T09:44:34Z</time>
      </trkpt>
      <trkpt lat="43.31009" lon="5.88847">
        <ele>758.61743164062</ele>
        <time>2012-05-13T09:44:40Z</time>
      </trkpt>
      <trkpt lat="43.30988" lon="5.8883">
        <ele>760.05932617188</ele>
        <time>2012-05-13T09:44:58Z</time>
      </trkpt>
      <trkpt lat="43.30958" lon="5.88814">
        <ele>758.13696289062</ele>
        <time>2012-05-13T09:45:16Z</time>
      </trkpt>
      <trkpt lat="43.30909" lon="5.88801">
        <ele>757.65625</ele>
        <time>2012-05-13T09:45:30Z</time>
      </trkpt>
      <trkpt lat="43.30895" lon="5.88762">
        <ele>756.69482421875</ele>
        <time>2012-05-13T09:45:41Z</time>
      </trkpt>
      <trkpt lat="43.30868" lon="5.88725">
        <ele>753.81103515625</ele>
        <time>2012-05-13T09:45:52Z</time>
      </trkpt>
      <trkpt lat="43.30821" lon="5.88707">
        <ele>753.81103515625</ele>
        <time>2012-05-13T09:46:06Z</time>
      </trkpt>
      <trkpt lat="43.30815" lon="5.88699">
        <ele>754.29174804688</ele>
        <time>2012-05-13T09:46:10Z</time>
      </trkpt>
      <trkpt lat="43.30794" lon="5.88692">
        <ele>755.2529296875</ele>
        <time>2012-05-13T09:46:24Z</time>
      </trkpt>
      <trkpt lat="43.30785" lon="5.88688">
        <ele>755.73364257812</ele>
        <time>2012-05-13T09:46:30Z</time>
      </trkpt>
      <trkpt lat="43.30757" lon="5.88677">
        <ele>757.65625</ele>
        <time>2012-05-13T09:46:49Z</time>
      </trkpt>
      <trkpt lat="43.30753" lon="5.88678">
        <ele>757.65625</ele>
        <time>2012-05-13T09:47:09Z</time>
      </trkpt>
      <trkpt lat="43.30745" lon="5.88687">
        <ele>757.17553710938</ele>
        <time>2012-05-13T09:47:16Z</time>
      </trkpt>
      <trkpt lat="43.3074" lon="5.88697">
        <ele>757.17553710938</ele>
        <time>2012-05-13T09:47:33Z</time>
      </trkpt>
      <trkpt lat="43.3074" lon="5.88699">
        <ele>757.17553710938</ele>
        <time>2012-05-13T09:47:34Z</time>
      </trkpt>
      <trkpt lat="43.30735" lon="5.887">
        <ele>757.17553710938</ele>
        <time>2012-05-13T09:47:38Z</time>
      </trkpt>
      <trkpt lat="43.30733" lon="5.88699">
        <ele>757.17553710938</ele>
        <time>2012-05-13T09:47:40Z</time>
      </trkpt>
      <trkpt lat="43.30723" lon="5.88712">
        <ele>757.65625</ele>
        <time>2012-05-13T09:47:54Z</time>
      </trkpt>
      <trkpt lat="43.30722" lon="5.88713">
        <ele>757.65625</ele>
        <time>2012-05-13T09:47:55Z</time>
      </trkpt>
      <trkpt lat="43.30721" lon="5.88714">
        <ele>758.13696289062</ele>
        <time>2012-05-13T09:48:23Z</time>
      </trkpt>
      <trkpt lat="43.30719" lon="5.88714">
        <ele>758.13696289062</ele>
        <time>2012-05-13T09:48:36Z</time>
      </trkpt>
      <trkpt lat="43.3072" lon="5.88712">
        <ele>757.65625</ele>
        <time>2012-05-13T09:48:45Z</time>
      </trkpt>
      <trkpt lat="43.30728" lon="5.88705">
        <ele>756.69482421875</ele>
        <time>2012-05-13T09:48:56Z</time>
      </trkpt>
      <trkpt lat="43.30731" lon="5.88702">
        <ele>756.69482421875</ele>
        <time>2012-05-13T09:49:06Z</time>
      </trkpt>
      <trkpt lat="43.30737" lon="5.88702">
        <ele>757.65625</ele>
        <time>2012-05-13T09:49:13Z</time>
      </trkpt>
      <trkpt lat="43.30745" lon="5.88688">
        <ele>757.17553710938</ele>
        <time>2012-05-13T09:49:20Z</time>
      </trkpt>
      <trkpt lat="43.3075" lon="5.88691">
        <ele>758.13696289062</ele>
        <time>2012-05-13T09:49:24Z</time>
      </trkpt>
      <trkpt lat="43.30744" lon="5.88717">
        <ele>761.50146484375</ele>
        <time>2012-05-13T09:49:36Z</time>
      </trkpt>
      <trkpt lat="43.30739" lon="5.88729">
        <ele>762.943359375</ele>
        <time>2012-05-13T09:49:48Z</time>
      </trkpt>
      <trkpt lat="43.30738" lon="5.88733">
        <ele>762.943359375</ele>
        <time>2012-05-13T09:49:52Z</time>
      </trkpt>
      <trkpt lat="43.30729" lon="5.88739">
        <ele>763.42407226562</ele>
        <time>2012-05-13T09:50:07Z</time>
      </trkpt>
      <trkpt lat="43.30722" lon="5.88745">
        <ele>764.8662109375</ele>
        <time>2012-05-13T09:50:26Z</time>
      </trkpt>
      <trkpt lat="43.30717" lon="5.8875">
        <ele>765.34692382812</ele>
        <time>2012-05-13T09:50:30Z</time>
      </trkpt>
      <trkpt lat="43.30698" lon="5.88775">
        <ele>766.30810546875</ele>
        <time>2012-05-13T09:50:47Z</time>
      </trkpt>
      <trkpt lat="43.30694" lon="5.88791">
        <ele>768.23071289062</ele>
        <time>2012-05-13T09:51:04Z</time>
      </trkpt>
      <trkpt lat="43.30696" lon="5.88796">
        <ele>769.19213867188</ele>
        <time>2012-05-13T09:51:21Z</time>
      </trkpt>
      <trkpt lat="43.30696" lon="5.88796">
        <ele>769.19213867188</ele>
        <time>2012-05-13T09:51:34Z</time>
      </trkpt>
      <trkpt lat="43.30703" lon="5.88813">
        <ele>772.556640625</ele>
        <time>2012-05-13T09:51:50Z</time>
      </trkpt>
      <trkpt lat="43.30709" lon="5.88833">
        <ele>774.9599609375</ele>
        <time>2012-05-13T09:52:06Z</time>
      </trkpt>
      <trkpt lat="43.30711" lon="5.88838">
        <ele>775.92114257812</ele>
        <time>2012-05-13T09:52:10Z</time>
      </trkpt>
      <trkpt lat="43.30716" lon="5.88853">
        <ele>776.40185546875</ele>
        <time>2012-05-13T09:52:24Z</time>
      </trkpt>
      <trkpt lat="43.30724" lon="5.88865">
        <ele>779.28564453125</ele>
        <time>2012-05-13T09:52:39Z</time>
      </trkpt>
      <trkpt lat="43.30729" lon="5.88866">
        <ele>779.28564453125</ele>
        <time>2012-05-13T09:52:48Z</time>
      </trkpt>
      <trkpt lat="43.30734" lon="5.8887">
        <ele>780.24731445312</ele>
        <time>2012-05-13T09:52:52Z</time>
      </trkpt>
      <trkpt lat="43.30737" lon="5.88879">
        <ele>782.169921875</ele>
        <time>2012-05-13T09:52:58Z</time>
      </trkpt>
      <trkpt lat="43.30735" lon="5.88887">
        <ele>783.13110351562</ele>
        <time>2012-05-13T09:53:09Z</time>
      </trkpt>
      <trkpt lat="43.30733" lon="5.88896">
        <ele>784.5732421875</ele>
        <time>2012-05-13T09:53:18Z</time>
      </trkpt>
      <trkpt lat="43.30724" lon="5.88916">
        <ele>787.45703125</ele>
        <time>2012-05-13T09:53:34Z</time>
      </trkpt>
      <trkpt lat="43.30721" lon="5.88918">
        <ele>787.45703125</ele>
        <time>2012-05-13T09:53:52Z</time>
      </trkpt>
      <trkpt lat="43.30715" lon="5.88922">
        <ele>788.41845703125</ele>
        <time>2012-05-13T09:53:58Z</time>
      </trkpt>
      <trkpt lat="43.30714" lon="5.88938">
        <ele>789.8603515625</ele>
        <time>2012-05-13T09:54:12Z</time>
      </trkpt>
      <trkpt lat="43.30717" lon="5.88951">
        <ele>792.263671875</ele>
        <time>2012-05-13T09:54:25Z</time>
      </trkpt>
      <trkpt lat="43.30718" lon="5.88952">
        <ele>791.78295898438</ele>
        <time>2012-05-13T09:54:45Z</time>
      </trkpt>
      <trkpt lat="43.30728" lon="5.88984">
        <ele>793.70556640625</ele>
        <time>2012-05-13T09:55:02Z</time>
      </trkpt>
      <trkpt lat="43.30733" lon="5.89001">
        <ele>794.66674804688</ele>
        <time>2012-05-13T09:55:12Z</time>
      </trkpt>
      <trkpt lat="43.30739" lon="5.89018">
        <ele>797.0703125</ele>
        <time>2012-05-13T09:55:22Z</time>
      </trkpt>
      <trkpt lat="43.30739" lon="5.8902">
        <ele>797.0703125</ele>
        <time>2012-05-13T09:55:23Z</time>
      </trkpt>
      <trkpt lat="43.30746" lon="5.89043">
        <ele>799.4736328125</ele>
        <time>2012-05-13T09:55:34Z</time>
      </trkpt>
      <trkpt lat="43.30744" lon="5.89056">
        <ele>801.39624023438</ele>
        <time>2012-05-13T09:55:41Z</time>
      </trkpt>
      <trkpt lat="43.30743" lon="5.89064">
        <ele>801.876953125</ele>
        <time>2012-05-13T09:55:46Z</time>
      </trkpt>
      <trkpt lat="43.30758" lon="5.89093">
        <ele>804.7607421875</ele>
        <time>2012-05-13T09:56:02Z</time>
      </trkpt>
      <trkpt lat="43.30762" lon="5.89098">
        <ele>805.24145507812</ele>
        <time>2012-05-13T09:56:05Z</time>
      </trkpt>
      <trkpt lat="43.30767" lon="5.89105">
        <ele>807.1640625</ele>
        <time>2012-05-13T09:56:22Z</time>
      </trkpt>
      <trkpt lat="43.30766" lon="5.89107">
        <ele>806.20263671875</ele>
        <time>2012-05-13T09:56:47Z</time>
      </trkpt>
      <trkpt lat="43.30757" lon="5.89113">
        <ele>806.68334960938</ele>
        <time>2012-05-13T09:56:54Z</time>
      </trkpt>
      <trkpt lat="43.30735" lon="5.89135">
        <ele>806.68334960938</ele>
        <time>2012-05-13T09:57:09Z</time>
      </trkpt>
      <trkpt lat="43.30723" lon="5.8914">
        <ele>807.1640625</ele>
        <time>2012-05-13T09:57:17Z</time>
      </trkpt>
      <trkpt lat="43.30697" lon="5.89157">
        <ele>810.0478515625</ele>
        <time>2012-05-13T09:57:34Z</time>
      </trkpt>
      <trkpt lat="43.30692" lon="5.89179">
        <ele>811.48999023438</ele>
        <time>2012-05-13T09:57:47Z</time>
      </trkpt>
      <trkpt lat="43.30699" lon="5.89206">
        <ele>811.48999023438</ele>
        <time>2012-05-13T09:58:02Z</time>
      </trkpt>
      <trkpt lat="43.30699" lon="5.89211">
        <ele>811.48999023438</ele>
        <time>2012-05-13T09:58:04Z</time>
      </trkpt>
      <trkpt lat="43.30698" lon="5.89217">
        <ele>811.48999023438</ele>
        <time>2012-05-13T09:58:07Z</time>
      </trkpt>
      <trkpt lat="43.30697" lon="5.89222">
        <ele>811.48999023438</ele>
        <time>2012-05-13T09:58:09Z</time>
      </trkpt>
      <trkpt lat="43.30699" lon="5.89232">
        <ele>811.48999023438</ele>
        <time>2012-05-13T09:58:13Z</time>
      </trkpt>
      <trkpt lat="43.30693" lon="5.89262">
        <ele>811.48999023438</ele>
        <time>2012-05-13T09:58:24Z</time>
      </trkpt>
      <trkpt lat="43.30689" lon="5.89292">
        <ele>812.45141601562</ele>
        <time>2012-05-13T09:58:38Z</time>
      </trkpt>
      <trkpt lat="43.30689" lon="5.89296">
        <ele>812.45141601562</ele>
        <time>2012-05-13T09:58:40Z</time>
      </trkpt>
      <trkpt lat="43.30696" lon="5.89321">
        <ele>813.41284179688</ele>
        <time>2012-05-13T09:58:53Z</time>
      </trkpt>
      <trkpt lat="43.30696" lon="5.89334">
        <ele>814.3740234375</ele>
        <time>2012-05-13T09:58:59Z</time>
      </trkpt>
      <trkpt lat="43.30698" lon="5.8934">
        <ele>814.3740234375</ele>
        <time>2012-05-13T09:59:02Z</time>
      </trkpt>
      <trkpt lat="43.30705" lon="5.89368">
        <ele>816.77734375</ele>
        <time>2012-05-13T09:59:16Z</time>
      </trkpt>
      <trkpt lat="43.30718" lon="5.89398">
        <ele>818.21923828125</ele>
        <time>2012-05-13T09:59:32Z</time>
      </trkpt>
      <trkpt lat="43.3072" lon="5.89403">
        <ele>819.1806640625</ele>
        <time>2012-05-13T09:59:35Z</time>
      </trkpt>
      <trkpt lat="43.30739" lon="5.89429">
        <ele>822.54516601562</ele>
        <time>2012-05-13T09:59:53Z</time>
      </trkpt>
      <trkpt lat="43.30744" lon="5.89439">
        <ele>822.54516601562</ele>
        <time>2012-05-13T09:59:59Z</time>
      </trkpt>
      <trkpt lat="43.30754" lon="5.89469">
        <ele>823.50659179688</ele>
        <time>2012-05-13T10:00:13Z</time>
      </trkpt>
      <trkpt lat="43.30754" lon="5.8948">
        <ele>823.50659179688</ele>
        <time>2012-05-13T10:00:17Z</time>
      </trkpt>
      <trkpt lat="43.30747" lon="5.89518">
        <ele>823.02587890625</ele>
        <time>2012-05-13T10:00:30Z</time>
      </trkpt>
      <trkpt lat="43.30751" lon="5.89547">
        <ele>822.54516601562</ele>
        <time>2012-05-13T10:00:42Z</time>
      </trkpt>
      <trkpt lat="43.30751" lon="5.89563">
        <ele>823.02587890625</ele>
        <time>2012-05-13T10:00:47Z</time>
      </trkpt>
      <trkpt lat="43.30756" lon="5.89577">
        <ele>822.54516601562</ele>
        <time>2012-05-13T10:00:52Z</time>
      </trkpt>
      <trkpt lat="43.30755" lon="5.89589">
        <ele>822.54516601562</ele>
        <time>2012-05-13T10:00:56Z</time>
      </trkpt>
      <trkpt lat="43.30744" lon="5.89632">
        <ele>823.02587890625</ele>
        <time>2012-05-13T10:01:09Z</time>
      </trkpt>
      <trkpt lat="43.30742" lon="5.89667">
        <ele>823.02587890625</ele>
        <time>2012-05-13T10:01:20Z</time>
      </trkpt>
      <trkpt lat="43.30757" lon="5.89729">
        <ele>823.02587890625</ele>
        <time>2012-05-13T10:01:36Z</time>
      </trkpt>
      <trkpt lat="43.3076" lon="5.89738">
        <ele>823.02587890625</ele>
        <time>2012-05-13T10:01:39Z</time>
      </trkpt>
      <trkpt lat="43.30763" lon="5.89745">
        <ele>822.54516601562</ele>
        <time>2012-05-13T10:01:43Z</time>
      </trkpt>
      <trkpt lat="43.30756" lon="5.89759">
        <ele>822.54516601562</ele>
        <time>2012-05-13T10:01:48Z</time>
      </trkpt>
      <trkpt lat="43.30751" lon="5.89773">
        <ele>822.54516601562</ele>
        <time>2012-05-13T10:01:53Z</time>
      </trkpt>
      <trkpt lat="43.30739" lon="5.89829">
        <ele>820.62255859375</ele>
        <time>2012-05-13T10:02:07Z</time>
      </trkpt>
      <trkpt lat="43.30736" lon="5.89856">
        <ele>821.10327148438</ele>
        <time>2012-05-13T10:02:15Z</time>
      </trkpt>
      <trkpt lat="43.3074" lon="5.89875">
        <ele>821.58374023438</ele>
        <time>2012-05-13T10:02:21Z</time>
      </trkpt>
      <trkpt lat="43.30755" lon="5.89927">
        <ele>820.62255859375</ele>
        <time>2012-05-13T10:02:36Z</time>
      </trkpt>
      <trkpt lat="43.30777" lon="5.89976">
        <ele>818.21923828125</ele>
        <time>2012-05-13T10:02:48Z</time>
      </trkpt>
      <trkpt lat="43.30801" lon="5.90011">
        <ele>817.25805664062</ele>
        <time>2012-05-13T10:02:58Z</time>
      </trkpt>
      <trkpt lat="43.30808" lon="5.90027">
        <ele>816.29663085938</ele>
        <time>2012-05-13T10:03:01Z</time>
      </trkpt>
      <trkpt lat="43.30813" lon="5.90046">
        <ele>815.81616210938</ele>
        <time>2012-05-13T10:03:06Z</time>
      </trkpt>
      <trkpt lat="43.30813" lon="5.90073">
        <ele>814.3740234375</ele>
        <time>2012-05-13T10:03:14Z</time>
      </trkpt>
      <trkpt lat="43.30807" lon="5.90088">
        <ele>813.41284179688</ele>
        <time>2012-05-13T10:03:18Z</time>
      </trkpt>
      <trkpt lat="43.30823" lon="5.90126">
        <ele>811.48999023438</ele>
        <time>2012-05-13T10:03:27Z</time>
      </trkpt>
      <trkpt lat="43.30837" lon="5.9015">
        <ele>811.48999023438</ele>
        <time>2012-05-13T10:03:33Z</time>
      </trkpt>
      <trkpt lat="43.30844" lon="5.9019">
        <ele>811.48999023438</ele>
        <time>2012-05-13T10:03:43Z</time>
      </trkpt>
      <trkpt lat="43.30852" lon="5.90219">
        <ele>813.41284179688</ele>
        <time>2012-05-13T10:03:51Z</time>
      </trkpt>
      <trkpt lat="43.30865" lon="5.90263">
        <ele>815.81616210938</ele>
        <time>2012-05-13T10:04:05Z</time>
      </trkpt>
      <trkpt lat="43.30869" lon="5.90278">
        <ele>815.81616210938</ele>
        <time>2012-05-13T10:04:19Z</time>
      </trkpt>
      <trkpt lat="43.3087" lon="5.90279">
        <ele>815.81616210938</ele>
        <time>2012-05-13T10:04:25Z</time>
      </trkpt>
      <trkpt lat="43.30876" lon="5.90284">
        <ele>815.81616210938</ele>
        <time>2012-05-13T10:04:35Z</time>
      </trkpt>
      <trkpt lat="43.30878" lon="5.90289">
        <ele>815.33544921875</ele>
        <time>2012-05-13T10:04:38Z</time>
      </trkpt>
      <trkpt lat="43.30883" lon="5.90297">
        <ele>815.81616210938</ele>
        <time>2012-05-13T10:04:50Z</time>
      </trkpt>
      <trkpt lat="43.30888" lon="5.90311">
        <ele>814.85473632812</ele>
        <time>2012-05-13T10:05:02Z</time>
      </trkpt>
      <trkpt lat="43.30891" lon="5.90328">
        <ele>814.3740234375</ele>
        <time>2012-05-13T10:05:08Z</time>
      </trkpt>
      <trkpt lat="43.30889" lon="5.90344">
        <ele>813.89331054688</ele>
        <time>2012-05-13T10:05:13Z</time>
      </trkpt>
      <trkpt lat="43.30891" lon="5.90353">
        <ele>813.89331054688</ele>
        <time>2012-05-13T10:05:16Z</time>
      </trkpt>
      <trkpt lat="43.30896" lon="5.90359">
        <ele>813.89331054688</ele>
        <time>2012-05-13T10:05:25Z</time>
      </trkpt>
      <trkpt lat="43.30891" lon="5.90363">
        <ele>814.3740234375</ele>
        <time>2012-05-13T10:05:33Z</time>
      </trkpt>
      <trkpt lat="43.30895" lon="5.90393">
        <ele>812.93212890625</ele>
        <time>2012-05-13T10:05:41Z</time>
      </trkpt>
      <trkpt lat="43.30907" lon="5.9043">
        <ele>810.0478515625</ele>
        <time>2012-05-13T10:05:50Z</time>
      </trkpt>
      <trkpt lat="43.3091" lon="5.90434">
        <ele>810.0478515625</ele>
        <time>2012-05-13T10:05:51Z</time>
      </trkpt>
      <trkpt lat="43.30915" lon="5.90445">
        <ele>809.5673828125</ele>
        <time>2012-05-13T10:05:57Z</time>
      </trkpt>
      <trkpt lat="43.30918" lon="5.90456">
        <ele>809.08666992188</ele>
        <time>2012-05-13T10:06:00Z</time>
      </trkpt>
      <trkpt lat="43.30919" lon="5.90463">
        <ele>808.60595703125</ele>
        <time>2012-05-13T10:06:02Z</time>
      </trkpt>
      <trkpt lat="43.30924" lon="5.9051">
        <ele>806.20263671875</ele>
        <time>2012-05-13T10:06:12Z</time>
      </trkpt>
      <trkpt lat="43.30926" lon="5.90546">
        <ele>805.24145507812</ele>
        <time>2012-05-13T10:06:19Z</time>
      </trkpt>
      <trkpt lat="43.30925" lon="5.90548">
        <ele>805.72216796875</ele>
        <time>2012-05-13T10:06:20Z</time>
      </trkpt>
      <trkpt lat="43.30929" lon="5.90557">
        <ele>805.24145507812</ele>
        <time>2012-05-13T10:06:24Z</time>
      </trkpt>
      <trkpt lat="43.30931" lon="5.90573">
        <ele>804.2802734375</ele>
        <time>2012-05-13T10:06:29Z</time>
      </trkpt>
      <trkpt lat="43.30931" lon="5.9058">
        <ele>803.79956054688</ele>
        <time>2012-05-13T10:06:31Z</time>
      </trkpt>
      <trkpt lat="43.30927" lon="5.90594">
        <ele>804.2802734375</ele>
        <time>2012-05-13T10:06:42Z</time>
      </trkpt>
      <trkpt lat="43.30927" lon="5.90594">
        <ele>804.2802734375</ele>
        <time>2012-05-13T10:06:52Z</time>
      </trkpt>
      <trkpt lat="43.30894" lon="5.90619">
        <ele>804.2802734375</ele>
        <time>2012-05-13T10:07:07Z</time>
      </trkpt>
      <trkpt lat="43.30887" lon="5.90623">
        <ele>804.7607421875</ele>
        <time>2012-05-13T10:07:22Z</time>
      </trkpt>
      <trkpt lat="43.30872" lon="5.90635">
        <ele>804.2802734375</ele>
        <time>2012-05-13T10:07:34Z</time>
      </trkpt>
      <trkpt lat="43.30841" lon="5.90677">
        <ele>803.79956054688</ele>
        <time>2012-05-13T10:07:48Z</time>
      </trkpt>
      <trkpt lat="43.30806" lon="5.90706">
        <ele>802.357421875</ele>
        <time>2012-05-13T10:08:02Z</time>
      </trkpt>
      <trkpt lat="43.30773" lon="5.90716">
        <ele>801.876953125</ele>
        <time>2012-05-13T10:08:14Z</time>
      </trkpt>
      <trkpt lat="43.30733" lon="5.90706">
        <ele>803.79956054688</ele>
        <time>2012-05-13T10:08:30Z</time>
      </trkpt>
      <trkpt lat="43.30686" lon="5.90704">
        <ele>802.83813476562</ele>
        <time>2012-05-13T10:08:50Z</time>
      </trkpt>
      <trkpt lat="43.30664" lon="5.90703">
        <ele>801.876953125</ele>
        <time>2012-05-13T10:08:55Z</time>
      </trkpt>
      <trkpt lat="43.30623" lon="5.90693">
        <ele>800.91552734375</ele>
        <time>2012-05-13T10:09:07Z</time>
      </trkpt>
      <trkpt lat="43.30601" lon="5.90689">
        <ele>803.31884765625</ele>
        <time>2012-05-13T10:09:15Z</time>
      </trkpt>
      <trkpt lat="43.30581" lon="5.907">
        <ele>804.2802734375</ele>
        <time>2012-05-13T10:09:29Z</time>
      </trkpt>
      <trkpt lat="43.30564" lon="5.90717">
        <ele>802.357421875</ele>
        <time>2012-05-13T10:10:15Z</time>
      </trkpt>
      <trkpt lat="43.3056" lon="5.90721">
        <ele>801.876953125</ele>
        <time>2012-05-13T10:10:16Z</time>
      </trkpt>
      <trkpt lat="43.30552" lon="5.90729">
        <ele>801.39624023438</ele>
        <time>2012-05-13T10:10:18Z</time>
      </trkpt>
      <trkpt lat="43.30547" lon="5.90734">
        <ele>800.43505859375</ele>
        <time>2012-05-13T10:10:19Z</time>
      </trkpt>
      <trkpt lat="43.30535" lon="5.90749">
        <ele>798.99291992188</ele>
        <time>2012-05-13T10:10:22Z</time>
      </trkpt>
      <trkpt lat="43.30518" lon="5.90768">
        <ele>797.55102539062</ele>
        <time>2012-05-13T10:10:26Z</time>
      </trkpt>
      <trkpt lat="43.30509" lon="5.90787">
        <ele>797.0703125</ele>
        <time>2012-05-13T10:10:29Z</time>
      </trkpt>
      <trkpt lat="43.30499" lon="5.90813">
        <ele>795.1474609375</ele>
        <time>2012-05-13T10:10:33Z</time>
      </trkpt>
      <trkpt lat="43.30479" lon="5.90836">
        <ele>795.62817382812</ele>
        <time>2012-05-13T10:10:38Z</time>
      </trkpt>
      <trkpt lat="43.30469" lon="5.90877">
        <ele>793.22485351562</ele>
        <time>2012-05-13T10:10:48Z</time>
      </trkpt>
      <trkpt lat="43.30467" lon="5.90899">
        <ele>792.263671875</ele>
        <time>2012-05-13T10:10:52Z</time>
      </trkpt>
      <trkpt lat="43.30457" lon="5.90928">
        <ele>791.78295898438</ele>
        <time>2012-05-13T10:10:58Z</time>
      </trkpt>
      <trkpt lat="43.30429" lon="5.90931">
        <ele>794.66674804688</ele>
        <time>2012-05-13T10:11:10Z</time>
      </trkpt>
      <trkpt lat="43.30397" lon="5.90921">
        <ele>797.0703125</ele>
        <time>2012-05-13T10:11:27Z</time>
      </trkpt>
      <trkpt lat="43.30395" lon="5.90921">
        <ele>797.0703125</ele>
        <time>2012-05-13T10:11:44Z</time>
      </trkpt>
      <trkpt lat="43.30383" lon="5.90921">
        <ele>796.10913085938</ele>
        <time>2012-05-13T10:12:20Z</time>
      </trkpt>
      <trkpt lat="43.30359" lon="5.90925">
        <ele>797.0703125</ele>
        <time>2012-05-13T10:12:31Z</time>
      </trkpt>
      <trkpt lat="43.30356" lon="5.90926">
        <ele>797.0703125</ele>
        <time>2012-05-13T10:12:36Z</time>
      </trkpt>
      <trkpt lat="43.30359" lon="5.90923">
        <ele>797.0703125</ele>
        <time>2012-05-13T10:12:47Z</time>
      </trkpt>
      <trkpt lat="43.30358" lon="5.90912">
        <ele>797.0703125</ele>
        <time>2012-05-13T10:12:54Z</time>
      </trkpt>
      <trkpt lat="43.30346" lon="5.90892">
        <ele>797.0703125</ele>
        <time>2012-05-13T10:13:05Z</time>
      </trkpt>
      <trkpt lat="43.30341" lon="5.90891">
        <ele>797.0703125</ele>
        <time>2012-05-13T10:13:08Z</time>
      </trkpt>
      <trkpt lat="43.30336" lon="5.90886">
        <ele>796.10913085938</ele>
        <time>2012-05-13T10:13:12Z</time>
      </trkpt>
      <trkpt lat="43.30316" lon="5.90875">
        <ele>792.74438476562</ele>
        <time>2012-05-13T10:13:20Z</time>
      </trkpt>
      <trkpt lat="43.30315" lon="5.90874">
        <ele>792.74438476562</ele>
        <time>2012-05-13T10:13:21Z</time>
      </trkpt>
      <trkpt lat="43.30305" lon="5.90868">
        <ele>790.82153320312</ele>
        <time>2012-05-13T10:13:31Z</time>
      </trkpt>
      <trkpt lat="43.30301" lon="5.90866">
        <ele>790.34106445312</ele>
        <time>2012-05-13T10:13:44Z</time>
      </trkpt>
      <trkpt lat="43.30301" lon="5.90865">
        <ele>791.30224609375</ele>
        <time>2012-05-13T10:13:46Z</time>
      </trkpt>
      <trkpt lat="43.30299" lon="5.90862">
        <ele>789.8603515625</ele>
        <time>2012-05-13T10:13:54Z</time>
      </trkpt>
      <trkpt lat="43.30292" lon="5.90855">
        <ele>789.8603515625</ele>
        <time>2012-05-13T10:14:04Z</time>
      </trkpt>
      <trkpt lat="43.30286" lon="5.9085">
        <ele>789.37963867188</ele>
        <time>2012-05-13T10:14:16Z</time>
      </trkpt>
      <trkpt lat="43.30282" lon="5.90848">
        <ele>788.41845703125</ele>
        <time>2012-05-13T10:14:31Z</time>
      </trkpt>
      <trkpt lat="43.30282" lon="5.90847">
        <ele>788.41845703125</ele>
        <time>2012-05-13T10:14:41Z</time>
      </trkpt>
      <trkpt lat="43.3028" lon="5.90844">
        <ele>788.89916992188</ele>
        <time>2012-05-13T10:14:44Z</time>
      </trkpt>
      <trkpt lat="43.30269" lon="5.90841">
        <ele>786.49584960938</ele>
        <time>2012-05-13T10:14:51Z</time>
      </trkpt>
      <trkpt lat="43.30259" lon="5.90831">
        <ele>786.01513671875</ele>
        <time>2012-05-13T10:14:59Z</time>
      </trkpt>
      <trkpt lat="43.30251" lon="5.90812">
        <ele>783.61181640625</ele>
        <time>2012-05-13T10:15:06Z</time>
      </trkpt>
      <trkpt lat="43.30243" lon="5.90808">
        <ele>781.20874023438</ele>
        <time>2012-05-13T10:15:10Z</time>
      </trkpt>
      <trkpt lat="43.30235" lon="5.90797">
        <ele>778.80517578125</ele>
        <time>2012-05-13T10:15:16Z</time>
      </trkpt>
      <trkpt lat="43.30228" lon="5.9079">
        <ele>775.92114257812</ele>
        <time>2012-05-13T10:15:21Z</time>
      </trkpt>
      <trkpt lat="43.30226" lon="5.90774">
        <ele>774.47924804688</ele>
        <time>2012-05-13T10:15:29Z</time>
      </trkpt>
      <trkpt lat="43.30224" lon="5.90768">
        <ele>774.9599609375</ele>
        <time>2012-05-13T10:15:40Z</time>
      </trkpt>
      <trkpt lat="43.30219" lon="5.90746">
        <ele>772.07592773438</ele>
        <time>2012-05-13T10:16:03Z</time>
      </trkpt>
      <trkpt lat="43.30219" lon="5.90739">
        <ele>772.556640625</ele>
        <time>2012-05-13T10:16:05Z</time>
      </trkpt>
      <trkpt lat="43.30223" lon="5.90696">
        <ele>770.63403320312</ele>
        <time>2012-05-13T10:16:18Z</time>
      </trkpt>
      <trkpt lat="43.3022" lon="5.90683">
        <ele>771.11474609375</ele>
        <time>2012-05-13T10:16:27Z</time>
      </trkpt>
      <trkpt lat="43.30218" lon="5.90678">
        <ele>770.63403320312</ele>
        <time>2012-05-13T10:16:32Z</time>
      </trkpt>
      <trkpt lat="43.30214" lon="5.90666">
        <ele>770.1533203125</ele>
        <time>2012-05-13T10:16:45Z</time>
      </trkpt>
      <trkpt lat="43.30206" lon="5.90633">
        <ele>770.1533203125</ele>
        <time>2012-05-13T10:16:59Z</time>
      </trkpt>
      <trkpt lat="43.30206" lon="5.90629">
        <ele>770.1533203125</ele>
        <time>2012-05-13T10:17:01Z</time>
      </trkpt>
      <trkpt lat="43.30192" lon="5.9061">
        <ele>766.78881835938</ele>
        <time>2012-05-13T10:17:13Z</time>
      </trkpt>
      <trkpt lat="43.30188" lon="5.90604">
        <ele>765.34692382812</ele>
        <time>2012-05-13T10:17:31Z</time>
      </trkpt>
      <trkpt lat="43.3018" lon="5.90589">
        <ele>764.38549804688</ele>
        <time>2012-05-13T10:17:39Z</time>
      </trkpt>
      <trkpt lat="43.30178" lon="5.90585">
        <ele>763.90454101562</ele>
        <time>2012-05-13T10:17:47Z</time>
      </trkpt>
      <trkpt lat="43.30172" lon="5.90579">
        <ele>762.943359375</ele>
        <time>2012-05-13T10:17:54Z</time>
      </trkpt>
      <trkpt lat="43.30166" lon="5.90576">
        <ele>762.46264648438</ele>
        <time>2012-05-13T10:18:10Z</time>
      </trkpt>
      <trkpt lat="43.30162" lon="5.90581">
        <ele>761.02075195312</ele>
        <time>2012-05-13T10:18:18Z</time>
      </trkpt>
      <trkpt lat="43.30156" lon="5.90582">
        <ele>759.57885742188</ele>
        <time>2012-05-13T10:18:27Z</time>
      </trkpt>
      <trkpt lat="43.30147" lon="5.90579">
        <ele>757.65625</ele>
        <time>2012-05-13T10:18:37Z</time>
      </trkpt>
      <trkpt lat="43.30142" lon="5.9058">
        <ele>756.21411132812</ele>
        <time>2012-05-13T10:18:44Z</time>
      </trkpt>
      <trkpt lat="43.30135" lon="5.90588">
        <ele>754.29174804688</ele>
        <time>2012-05-13T10:18:50Z</time>
      </trkpt>
      <trkpt lat="43.3013" lon="5.9059">
        <ele>752.849609375</ele>
        <time>2012-05-13T10:18:53Z</time>
      </trkpt>
      <trkpt lat="43.30126" lon="5.90591">
        <ele>752.36889648438</ele>
        <time>2012-05-13T10:18:55Z</time>
      </trkpt>
      <trkpt lat="43.30112" lon="5.90596">
        <ele>748.52368164062</ele>
        <time>2012-05-13T10:19:02Z</time>
      </trkpt>
      <trkpt lat="43.30108" lon="5.90598">
        <ele>747.56225585938</ele>
        <time>2012-05-13T10:19:04Z</time>
      </trkpt>
      <trkpt lat="43.30091" lon="5.90593">
        <ele>744.19775390625</ele>
        <time>2012-05-13T10:19:13Z</time>
      </trkpt>
      <trkpt lat="43.30085" lon="5.90591">
        <ele>744.19775390625</ele>
        <time>2012-05-13T10:19:20Z</time>
      </trkpt>
      <trkpt lat="43.30076" lon="5.90583">
        <ele>741.79443359375</ele>
        <time>2012-05-13T10:19:26Z</time>
      </trkpt>
      <trkpt lat="43.30068" lon="5.90586">
        <ele>739.39111328125</ele>
        <time>2012-05-13T10:19:31Z</time>
      </trkpt>
      <trkpt lat="43.30061" lon="5.90588">
        <ele>736.98779296875</ele>
        <time>2012-05-13T10:19:35Z</time>
      </trkpt>
      <trkpt lat="43.30053" lon="5.90593">
        <ele>734.10400390625</ele>
        <time>2012-05-13T10:19:42Z</time>
      </trkpt>
      <trkpt lat="43.30047" lon="5.90598">
        <ele>729.77783203125</ele>
        <time>2012-05-13T10:19:49Z</time>
      </trkpt>
      <trkpt lat="43.30047" lon="5.90597">
        <ele>729.77783203125</ele>
        <time>2012-05-13T10:19:50Z</time>
      </trkpt>
      <trkpt lat="43.30044" lon="5.90602">
        <ele>729.29711914062</ele>
        <time>2012-05-13T10:20:02Z</time>
      </trkpt>
      <trkpt lat="43.30041" lon="5.90612">
        <ele>725.9326171875</ele>
        <time>2012-05-13T10:20:07Z</time>
      </trkpt>
      <trkpt lat="43.3004" lon="5.90614">
        <ele>725.9326171875</ele>
        <time>2012-05-13T10:20:08Z</time>
      </trkpt>
      <trkpt lat="43.3004" lon="5.90627">
        <ele>722.56811523438</ele>
        <time>2012-05-13T10:20:13Z</time>
      </trkpt>
      <trkpt lat="43.30043" lon="5.9063">
        <ele>722.08740234375</ele>
        <time>2012-05-13T10:20:15Z</time>
      </trkpt>
      <trkpt lat="43.30045" lon="5.90638">
        <ele>720.6455078125</ele>
        <time>2012-05-13T10:20:28Z</time>
      </trkpt>
      <trkpt lat="43.30044" lon="5.90639">
        <ele>720.6455078125</ele>
        <time>2012-05-13T10:20:48Z</time>
      </trkpt>
      <trkpt lat="43.30041" lon="5.90645">
        <ele>719.20361328125</ele>
        <time>2012-05-13T10:21:03Z</time>
      </trkpt>
      <trkpt lat="43.30036" lon="5.9065">
        <ele>716.31958007812</ele>
        <time>2012-05-13T10:21:13Z</time>
      </trkpt>
      <trkpt lat="43.30029" lon="5.90653">
        <ele>714.39672851562</ele>
        <time>2012-05-13T10:21:28Z</time>
      </trkpt>
      <trkpt lat="43.30025" lon="5.90655">
        <ele>712.47412109375</ele>
        <time>2012-05-13T10:21:47Z</time>
      </trkpt>
      <trkpt lat="43.30022" lon="5.90659">
        <ele>710.55151367188</ele>
        <time>2012-05-13T10:22:10Z</time>
      </trkpt>
      <trkpt lat="43.30019" lon="5.90662">
        <ele>709.10961914062</ele>
        <time>2012-05-13T10:22:23Z</time>
      </trkpt>
      <trkpt lat="43.30013" lon="5.90669">
        <ele>707.18701171875</ele>
        <time>2012-05-13T10:22:47Z</time>
      </trkpt>
      <trkpt lat="43.30008" lon="5.90676">
        <ele>705.26440429688</ele>
        <time>2012-05-13T10:22:56Z</time>
      </trkpt>
      <trkpt lat="43.30004" lon="5.90687">
        <ele>703.82250976562</ele>
        <time>2012-05-13T10:23:08Z</time>
      </trkpt>
      <trkpt lat="43.29997" lon="5.90698">
        <ele>700.9384765625</ele>
        <time>2012-05-13T10:23:25Z</time>
      </trkpt>
      <trkpt lat="43.29994" lon="5.90704">
        <ele>699.49633789062</ele>
        <time>2012-05-13T10:23:39Z</time>
      </trkpt>
      <trkpt lat="43.29985" lon="5.90719">
        <ele>696.61254882812</ele>
        <time>2012-05-13T10:23:46Z</time>
      </trkpt>
      <trkpt lat="43.29976" lon="5.90737">
        <ele>693.24780273438</ele>
        <time>2012-05-13T10:23:55Z</time>
      </trkpt>
      <trkpt lat="43.29971" lon="5.90742">
        <ele>691.80590820312</ele>
        <time>2012-05-13T10:24:08Z</time>
      </trkpt>
      <trkpt lat="43.29963" lon="5.9075">
        <ele>689.40258789062</ele>
        <time>2012-05-13T10:24:22Z</time>
      </trkpt>
      <trkpt lat="43.29957" lon="5.9076">
        <ele>687.96069335938</ele>
        <time>2012-05-13T10:24:35Z</time>
      </trkpt>
      <trkpt lat="43.29956" lon="5.90768">
        <ele>687.96069335938</ele>
        <time>2012-05-13T10:24:42Z</time>
      </trkpt>
      <trkpt lat="43.29956" lon="5.90776">
        <ele>686.99926757812</ele>
        <time>2012-05-13T10:24:56Z</time>
      </trkpt>
      <trkpt lat="43.29951" lon="5.90786">
        <ele>686.51879882812</ele>
        <time>2012-05-13T10:25:09Z</time>
      </trkpt>
      <trkpt lat="43.29941" lon="5.9081">
        <ele>683.63452148438</ele>
        <time>2012-05-13T10:25:21Z</time>
      </trkpt>
      <trkpt lat="43.29938" lon="5.90815">
        <ele>683.15380859375</ele>
        <time>2012-05-13T10:25:29Z</time>
      </trkpt>
      <trkpt lat="43.29937" lon="5.90824">
        <ele>682.67333984375</ele>
        <time>2012-05-13T10:25:40Z</time>
      </trkpt>
      <trkpt lat="43.29933" lon="5.9083">
        <ele>680.75073242188</ele>
        <time>2012-05-13T10:25:53Z</time>
      </trkpt>
      <trkpt lat="43.29925" lon="5.90835">
        <ele>678.828125</ele>
        <time>2012-05-13T10:25:58Z</time>
      </trkpt>
      <trkpt lat="43.29922" lon="5.90842">
        <ele>677.86669921875</ele>
        <time>2012-05-13T10:26:03Z</time>
      </trkpt>
      <trkpt lat="43.29917" lon="5.90847">
        <ele>676.4248046875</ele>
        <time>2012-05-13T10:26:07Z</time>
      </trkpt>
      <trkpt lat="43.2991" lon="5.90851">
        <ele>675.46337890625</ele>
        <time>2012-05-13T10:26:20Z</time>
      </trkpt>
      <trkpt lat="43.29904" lon="5.90852">
        <ele>674.021484375</ele>
        <time>2012-05-13T10:26:32Z</time>
      </trkpt>
      <trkpt lat="43.29898" lon="5.90852">
        <ele>673.541015625</ele>
        <time>2012-05-13T10:26:41Z</time>
      </trkpt>
      <trkpt lat="43.29881" lon="5.90833">
        <ele>670.17626953125</ele>
        <time>2012-05-13T10:26:53Z</time>
      </trkpt>
      <trkpt lat="43.2988" lon="5.90831">
        <ele>670.17626953125</ele>
        <time>2012-05-13T10:26:54Z</time>
      </trkpt>
      <trkpt lat="43.29874" lon="5.90828">
        <ele>668.734375</ele>
        <time>2012-05-13T10:26:57Z</time>
      </trkpt>
      <trkpt lat="43.29859" lon="5.90812">
        <ele>665.36962890625</ele>
        <time>2012-05-13T10:27:05Z</time>
      </trkpt>
      <trkpt lat="43.29842" lon="5.90784">
        <ele>662.00512695312</ele>
        <time>2012-05-13T10:27:16Z</time>
      </trkpt>
      <trkpt lat="43.29838" lon="5.90777">
        <ele>660.56298828125</ele>
        <time>2012-05-13T10:27:19Z</time>
      </trkpt>
      <trkpt lat="43.29834" lon="5.90767">
        <ele>659.60180664062</ele>
        <time>2012-05-13T10:27:22Z</time>
      </trkpt>
      <trkpt lat="43.29824" lon="5.90766">
        <ele>657.67919921875</ele>
        <time>2012-05-13T10:27:30Z</time>
      </trkpt>
      <trkpt lat="43.29819" lon="5.90768">
        <ele>656.23706054688</ele>
        <time>2012-05-13T10:27:33Z</time>
      </trkpt>
      <trkpt lat="43.29817" lon="5.9079">
        <ele>653.833984375</ele>
        <time>2012-05-13T10:27:40Z</time>
      </trkpt>
      <trkpt lat="43.29827" lon="5.90833">
        <ele>652.39184570312</ele>
        <time>2012-05-13T10:27:54Z</time>
      </trkpt>
      <trkpt lat="43.29836" lon="5.90866">
        <ele>649.02709960938</ele>
        <time>2012-05-13T10:28:09Z</time>
      </trkpt>
      <trkpt lat="43.29843" lon="5.90893">
        <ele>646.14331054688</ele>
        <time>2012-05-13T10:28:21Z</time>
      </trkpt>
      <trkpt lat="43.2984" lon="5.90909">
        <ele>643.25927734375</ele>
        <time>2012-05-13T10:28:28Z</time>
      </trkpt>
      <trkpt lat="43.2984" lon="5.90912">
        <ele>642.77880859375</ele>
        <time>2012-05-13T10:28:29Z</time>
      </trkpt>
      <trkpt lat="43.29843" lon="5.90936">
        <ele>639.4140625</ele>
        <time>2012-05-13T10:28:36Z</time>
      </trkpt>
      <trkpt lat="43.29846" lon="5.90946">
        <ele>637.97216796875</ele>
        <time>2012-05-13T10:28:39Z</time>
      </trkpt>
      <trkpt lat="43.29846" lon="5.90947">
        <ele>637.49145507812</ele>
        <time>2012-05-13T10:28:52Z</time>
      </trkpt>
      <trkpt lat="43.29849" lon="5.9096">
        <ele>636.04956054688</ele>
        <time>2012-05-13T10:29:08Z</time>
      </trkpt>
      <trkpt lat="43.29863" lon="5.90985">
        <ele>632.68481445312</ele>
        <time>2012-05-13T10:29:18Z</time>
      </trkpt>
      <trkpt lat="43.29868" lon="5.90993">
        <ele>631.24291992188</ele>
        <time>2012-05-13T10:29:21Z</time>
      </trkpt>
      <trkpt lat="43.29871" lon="5.90997">
        <ele>630.76220703125</ele>
        <time>2012-05-13T10:29:24Z</time>
      </trkpt>
      <trkpt lat="43.29879" lon="5.9101">
        <ele>628.35888671875</ele>
        <time>2012-05-13T10:29:30Z</time>
      </trkpt>
      <trkpt lat="43.29869" lon="5.91018">
        <ele>626.43627929688</ele>
        <time>2012-05-13T10:29:37Z</time>
      </trkpt>
      <trkpt lat="43.29861" lon="5.91018">
        <ele>625.47485351562</ele>
        <time>2012-05-13T10:29:40Z</time>
      </trkpt>
      <trkpt lat="43.29852" lon="5.91016">
        <ele>624.99438476562</ele>
        <time>2012-05-13T10:29:45Z</time>
      </trkpt>
      <trkpt lat="43.29844" lon="5.91016">
        <ele>623.55249023438</ele>
        <time>2012-05-13T10:29:49Z</time>
      </trkpt>
      <trkpt lat="43.29835" lon="5.91018">
        <ele>622.1103515625</ele>
        <time>2012-05-13T10:29:54Z</time>
      </trkpt>
      <trkpt lat="43.29828" lon="5.91023">
        <ele>620.66845703125</ele>
        <time>2012-05-13T10:29:58Z</time>
      </trkpt>
      <trkpt lat="43.29819" lon="5.91022">
        <ele>618.26489257812</ele>
        <time>2012-05-13T10:30:02Z</time>
      </trkpt>
      <trkpt lat="43.29815" lon="5.9102">
        <ele>617.3037109375</ele>
        <time>2012-05-13T10:30:04Z</time>
      </trkpt>
      <trkpt lat="43.29802" lon="5.91015">
        <ele>615.86181640625</ele>
        <time>2012-05-13T10:30:10Z</time>
      </trkpt>
      <trkpt lat="43.29795" lon="5.91014">
        <ele>614.900390625</ele>
        <time>2012-05-13T10:30:13Z</time>
      </trkpt>
      <trkpt lat="43.29783" lon="5.91006">
        <ele>613.93896484375</ele>
        <time>2012-05-13T10:30:24Z</time>
      </trkpt>
      <trkpt lat="43.29784" lon="5.91007">
        <ele>613.93896484375</ele>
        <time>2012-05-13T10:30:36Z</time>
      </trkpt>
      <trkpt lat="43.29789" lon="5.91018">
        <ele>614.900390625</ele>
        <time>2012-05-13T10:30:51Z</time>
      </trkpt>
      <trkpt lat="43.2979" lon="5.91018">
        <ele>614.41967773438</ele>
        <time>2012-05-13T10:30:56Z</time>
      </trkpt>
      <trkpt lat="43.29786" lon="5.91023">
        <ele>614.41967773438</ele>
        <time>2012-05-13T10:31:00Z</time>
      </trkpt>
      <trkpt lat="43.29764" lon="5.91032">
        <ele>614.900390625</ele>
        <time>2012-05-13T10:31:15Z</time>
      </trkpt>
      <trkpt lat="43.29763" lon="5.91032">
        <ele>614.41967773438</ele>
        <time>2012-05-13T10:31:22Z</time>
      </trkpt>
      <trkpt lat="43.29758" lon="5.91041">
        <ele>616.34228515625</ele>
        <time>2012-05-13T10:31:32Z</time>
      </trkpt>
      <trkpt lat="43.29748" lon="5.91049">
        <ele>617.7841796875</ele>
        <time>2012-05-13T10:31:44Z</time>
      </trkpt>
      <trkpt lat="43.29741" lon="5.91059">
        <ele>620.18774414062</ele>
        <time>2012-05-13T10:32:02Z</time>
      </trkpt>
      <trkpt lat="43.29739" lon="5.91065">
        <ele>621.62963867188</ele>
        <time>2012-05-13T10:32:10Z</time>
      </trkpt>
      <trkpt lat="43.29727" lon="5.91079">
        <ele>623.07177734375</ele>
        <time>2012-05-13T10:32:27Z</time>
      </trkpt>
      <trkpt lat="43.29723" lon="5.91085">
        <ele>624.513671875</ele>
        <time>2012-05-13T10:32:37Z</time>
      </trkpt>
      <trkpt lat="43.29722" lon="5.91094">
        <ele>625.95556640625</ele>
        <time>2012-05-13T10:32:49Z</time>
      </trkpt>
      <trkpt lat="43.29719" lon="5.91098">
        <ele>626.43627929688</ele>
        <time>2012-05-13T10:32:55Z</time>
      </trkpt>
      <trkpt lat="43.29716" lon="5.91099">
        <ele>627.39770507812</ele>
        <time>2012-05-13T10:32:59Z</time>
      </trkpt>
      <trkpt lat="43.29706" lon="5.91104">
        <ele>628.35888671875</ele>
        <time>2012-05-13T10:33:13Z</time>
      </trkpt>
      <trkpt lat="43.29706" lon="5.91106">
        <ele>628.83959960938</ele>
        <time>2012-05-13T10:33:43Z</time>
      </trkpt>
      <trkpt lat="43.29708" lon="5.91107">
        <ele>628.35888671875</ele>
        <time>2012-05-13T10:33:57Z</time>
      </trkpt>
      <trkpt lat="43.29711" lon="5.91109">
        <ele>628.35888671875</ele>
        <time>2012-05-13T10:34:13Z</time>
      </trkpt>
      <trkpt lat="43.2971" lon="5.91108">
        <ele>628.35888671875</ele>
        <time>2012-05-13T10:34:37Z</time>
      </trkpt>
      <trkpt lat="43.29705" lon="5.91105">
        <ele>627.87817382812</ele>
        <time>2012-05-13T10:34:51Z</time>
      </trkpt>
      <trkpt lat="43.29697" lon="5.91103">
        <ele>627.39770507812</ele>
        <time>2012-05-13T10:35:08Z</time>
      </trkpt>
      <trkpt lat="43.29696" lon="5.91109">
        <ele>626.9169921875</ele>
        <time>2012-05-13T10:35:24Z</time>
      </trkpt>
      <trkpt lat="43.29695" lon="5.91118">
        <ele>626.43627929688</ele>
        <time>2012-05-13T10:35:28Z</time>
      </trkpt>
      <trkpt lat="43.29694" lon="5.91129">
        <ele>625.95556640625</ele>
        <time>2012-05-13T10:35:41Z</time>
      </trkpt>
      <trkpt lat="43.29691" lon="5.9113">
        <ele>625.95556640625</ele>
        <time>2012-05-13T10:36:03Z</time>
      </trkpt>
      <trkpt lat="43.29686" lon="5.91129">
        <ele>624.513671875</ele>
        <time>2012-05-13T10:36:09Z</time>
      </trkpt>
      <trkpt lat="43.29684" lon="5.91126">
        <ele>624.03295898438</ele>
        <time>2012-05-13T10:36:11Z</time>
      </trkpt>
      <trkpt lat="43.29678" lon="5.91124">
        <ele>622.1103515625</ele>
        <time>2012-05-13T10:36:17Z</time>
      </trkpt>
      <trkpt lat="43.29669" lon="5.91121">
        <ele>619.70703125</ele>
        <time>2012-05-13T10:36:29Z</time>
      </trkpt>
      <trkpt lat="43.29663" lon="5.91119">
        <ele>617.3037109375</ele>
        <time>2012-05-13T10:36:42Z</time>
      </trkpt>
      <trkpt lat="43.29652" lon="5.91116">
        <ele>614.41967773438</ele>
        <time>2012-05-13T10:36:54Z</time>
      </trkpt>
      <trkpt lat="43.29647" lon="5.91112">
        <ele>612.97778320312</ele>
        <time>2012-05-13T10:37:03Z</time>
      </trkpt>
      <trkpt lat="43.29627" lon="5.9112">
        <ele>610.09375</ele>
        <time>2012-05-13T10:37:11Z</time>
      </trkpt>
      <trkpt lat="43.29606" lon="5.91145">
        <ele>610.57446289062</ele>
        <time>2012-05-13T10:37:26Z</time>
      </trkpt>
      <trkpt lat="43.29602" lon="5.91148">
        <ele>610.57446289062</ele>
        <time>2012-05-13T10:37:40Z</time>
      </trkpt>
      <trkpt lat="43.29583" lon="5.91147">
        <ele>609.13256835938</ele>
        <time>2012-05-13T10:38:05Z</time>
      </trkpt>
      <trkpt lat="43.2957" lon="5.91133">
        <ele>609.61328125</ele>
        <time>2012-05-13T10:38:09Z</time>
      </trkpt>
      <trkpt lat="43.29553" lon="5.91134">
        <ele>610.09375</ele>
        <time>2012-05-13T10:38:14Z</time>
      </trkpt>
      <trkpt lat="43.29539" lon="5.91138">
        <ele>610.09375</ele>
        <time>2012-05-13T10:38:18Z</time>
      </trkpt>
      <trkpt lat="43.29504" lon="5.91147">
        <ele>609.61328125</ele>
        <time>2012-05-13T10:38:29Z</time>
      </trkpt>
      <trkpt lat="43.29489" lon="5.91153">
        <ele>607.69067382812</ele>
        <time>2012-05-13T10:38:35Z</time>
      </trkpt>
      <trkpt lat="43.29478" lon="5.91156">
        <ele>606.24853515625</ele>
        <time>2012-05-13T10:38:38Z</time>
      </trkpt>
      <trkpt lat="43.29466" lon="5.91158">
        <ele>604.326171875</ele>
        <time>2012-05-13T10:38:41Z</time>
      </trkpt>
      <trkpt lat="43.29456" lon="5.91161">
        <ele>603.36450195312</ele>
        <time>2012-05-13T10:38:43Z</time>
      </trkpt>
      <trkpt lat="43.29428" lon="5.91181">
        <ele>605.76806640625</ele>
        <time>2012-05-13T10:38:54Z</time>
      </trkpt>
      <trkpt lat="43.29395" lon="5.91211">
        <ele>606.24853515625</ele>
        <time>2012-05-13T10:39:10Z</time>
      </trkpt>
      <trkpt lat="43.29357" lon="5.91253">
        <ele>602.8837890625</ele>
        <time>2012-05-13T10:39:26Z</time>
      </trkpt>
      <trkpt lat="43.29341" lon="5.91264">
        <ele>603.36450195312</ele>
        <time>2012-05-13T10:39:30Z</time>
      </trkpt>
      <trkpt lat="43.29336" lon="5.91271">
        <ele>604.806640625</ele>
        <time>2012-05-13T10:39:32Z</time>
      </trkpt>
      <trkpt lat="43.29318" lon="5.91308">
        <ele>605.76806640625</ele>
        <time>2012-05-13T10:39:45Z</time>
      </trkpt>
      <trkpt lat="43.2931" lon="5.91344">
        <ele>608.65185546875</ele>
        <time>2012-05-13T10:39:57Z</time>
      </trkpt>
      <trkpt lat="43.2931" lon="5.91347">
        <ele>609.13256835938</ele>
        <time>2012-05-13T10:39:58Z</time>
      </trkpt>
      <trkpt lat="43.29299" lon="5.91384">
        <ele>607.2099609375</ele>
        <time>2012-05-13T10:40:08Z</time>
      </trkpt>
      <trkpt lat="43.29302" lon="5.9141">
        <ele>605.28735351562</ele>
        <time>2012-05-13T10:40:13Z</time>
      </trkpt>
      <trkpt lat="43.2931" lon="5.91425">
        <ele>604.326171875</ele>
        <time>2012-05-13T10:40:16Z</time>
      </trkpt>
      <trkpt lat="43.29314" lon="5.91429">
        <ele>603.36450195312</ele>
        <time>2012-05-13T10:40:17Z</time>
      </trkpt>
      <trkpt lat="43.29327" lon="5.91437">
        <ele>603.36450195312</ele>
        <time>2012-05-13T10:40:20Z</time>
      </trkpt>
      <trkpt lat="43.29364" lon="5.91483">
        <ele>600.96118164062</ele>
        <time>2012-05-13T10:40:33Z</time>
      </trkpt>
      <trkpt lat="43.29374" lon="5.91507">
        <ele>598.55786132812</ele>
        <time>2012-05-13T10:40:37Z</time>
      </trkpt>
      <trkpt lat="43.29398" lon="5.91542">
        <ele>596.15478515625</ele>
        <time>2012-05-13T10:40:45Z</time>
      </trkpt>
      <trkpt lat="43.29401" lon="5.91565">
        <ele>592.79028320312</ele>
        <time>2012-05-13T10:40:49Z</time>
      </trkpt>
      <trkpt lat="43.29402" lon="5.91577">
        <ele>592.3095703125</ele>
        <time>2012-05-13T10:40:51Z</time>
      </trkpt>
      <trkpt lat="43.29402" lon="5.91587">
        <ele>591.82885742188</ele>
        <time>2012-05-13T10:40:54Z</time>
      </trkpt>
      <trkpt lat="43.29397" lon="5.91603">
        <ele>588.94506835938</ele>
        <time>2012-05-13T10:40:57Z</time>
      </trkpt>
      <trkpt lat="43.29396" lon="5.91609">
        <ele>588.94506835938</ele>
        <time>2012-05-13T10:40:58Z</time>
      </trkpt>
      <trkpt lat="43.29393" lon="5.9163">
        <ele>587.50268554688</ele>
        <time>2012-05-13T10:41:01Z</time>
      </trkpt>
      <trkpt lat="43.29382" lon="5.91649">
        <ele>583.65747070312</ele>
        <time>2012-05-13T10:41:05Z</time>
      </trkpt>
      <trkpt lat="43.29358" lon="5.91679">
        <ele>579.81225585938</ele>
        <time>2012-05-13T10:41:12Z</time>
      </trkpt>
      <trkpt lat="43.29354" lon="5.91684">
        <ele>580.29296875</ele>
        <time>2012-05-13T10:41:13Z</time>
      </trkpt>
      <trkpt lat="43.29342" lon="5.91704">
        <ele>577.4091796875</ele>
        <time>2012-05-13T10:41:17Z</time>
      </trkpt>
      <trkpt lat="43.29317" lon="5.91733">
        <ele>575.005859375</ele>
        <time>2012-05-13T10:41:23Z</time>
      </trkpt>
      <trkpt lat="43.29301" lon="5.91753">
        <ele>571.64086914062</ele>
        <time>2012-05-13T10:41:29Z</time>
      </trkpt>
      <trkpt lat="43.29292" lon="5.91765">
        <ele>569.71850585938</ele>
        <time>2012-05-13T10:41:33Z</time>
      </trkpt>
      <trkpt lat="43.29281" lon="5.91787">
        <ele>566.35375976562</ele>
        <time>2012-05-13T10:41:40Z</time>
      </trkpt>
      <trkpt lat="43.29269" lon="5.91807">
        <ele>562.9892578125</ele>
        <time>2012-05-13T10:41:46Z</time>
      </trkpt>
      <trkpt lat="43.2926" lon="5.91822">
        <ele>559.62475585938</ele>
        <time>2012-05-13T10:41:50Z</time>
      </trkpt>
      <trkpt lat="43.29258" lon="5.91827">
        <ele>559.62475585938</ele>
        <time>2012-05-13T10:41:51Z</time>
      </trkpt>
      <trkpt lat="43.29248" lon="5.91851">
        <ele>556.26000976562</ele>
        <time>2012-05-13T10:41:55Z</time>
      </trkpt>
      <trkpt lat="43.29231" lon="5.91881">
        <ele>552.41455078125</ele>
        <time>2012-05-13T10:42:04Z</time>
      </trkpt>
      <trkpt lat="43.29216" lon="5.91889">
        <ele>549.53076171875</ele>
        <time>2012-05-13T10:42:09Z</time>
      </trkpt>
      <trkpt lat="43.29197" lon="5.91901">
        <ele>546.64685058594</ele>
        <time>2012-05-13T10:42:15Z</time>
      </trkpt>
      <trkpt lat="43.29186" lon="5.9191">
        <ele>544.72424316406</ele>
        <time>2012-05-13T10:42:20Z</time>
      </trkpt>
      <trkpt lat="43.29176" lon="5.91917">
        <ele>541.35949707031</ele>
        <time>2012-05-13T10:42:25Z</time>
      </trkpt>
      <trkpt lat="43.29172" lon="5.91921">
        <ele>540.87890625</ele>
        <time>2012-05-13T10:42:27Z</time>
      </trkpt>
      <trkpt lat="43.29163" lon="5.9193">
        <ele>537.51428222656</ele>
        <time>2012-05-13T10:42:30Z</time>
      </trkpt>
      <trkpt lat="43.2916" lon="5.91934">
        <ele>537.51428222656</ele>
        <time>2012-05-13T10:42:31Z</time>
      </trkpt>
      <trkpt lat="43.29156" lon="5.91937">
        <ele>537.51428222656</ele>
        <time>2012-05-13T10:42:32Z</time>
      </trkpt>
      <trkpt lat="43.29139" lon="5.91951">
        <ele>535.11096191406</ele>
        <time>2012-05-13T10:42:37Z</time>
      </trkpt>
      <trkpt lat="43.29131" lon="5.91965">
        <ele>533.6689453125</ele>
        <time>2012-05-13T10:42:40Z</time>
      </trkpt>
      <trkpt lat="43.29128" lon="5.91973">
        <ele>532.70776367188</ele>
        <time>2012-05-13T10:42:42Z</time>
      </trkpt>
      <trkpt lat="43.29122" lon="5.91996">
        <ele>529.82373046875</ele>
        <time>2012-05-13T10:42:48Z</time>
      </trkpt>
      <trkpt lat="43.29119" lon="5.92006">
        <ele>528.3818359375</ele>
        <time>2012-05-13T10:42:57Z</time>
      </trkpt>
      <trkpt lat="43.29118" lon="5.92029">
        <ele>524.53649902344</ele>
        <time>2012-05-13T10:43:04Z</time>
      </trkpt>
      <trkpt lat="43.29118" lon="5.92048">
        <ele>523.09460449219</ele>
        <time>2012-05-13T10:43:12Z</time>
      </trkpt>
      <trkpt lat="43.29115" lon="5.92077">
        <ele>520.69128417969</ele>
        <time>2012-05-13T10:43:26Z</time>
      </trkpt>
      <trkpt lat="43.29109" lon="5.92101">
        <ele>517.32666015625</ele>
        <time>2012-05-13T10:43:32Z</time>
      </trkpt>
      <trkpt lat="43.29108" lon="5.92104">
        <ele>517.32666015625</ele>
        <time>2012-05-13T10:43:33Z</time>
      </trkpt>
      <trkpt lat="43.29102" lon="5.92126">
        <ele>513.4814453125</ele>
        <time>2012-05-13T10:43:40Z</time>
      </trkpt>
      <trkpt lat="43.29098" lon="5.92143">
        <ele>510.11669921875</ele>
        <time>2012-05-13T10:43:44Z</time>
      </trkpt>
      <trkpt lat="43.29094" lon="5.92165">
        <ele>507.23278808594</ele>
        <time>2012-05-13T10:43:50Z</time>
      </trkpt>
      <trkpt lat="43.29094" lon="5.92184">
        <ele>503.8681640625</ele>
        <time>2012-05-13T10:43:55Z</time>
      </trkpt>
      <trkpt lat="43.29094" lon="5.92192">
        <ele>502.90673828125</ele>
        <time>2012-05-13T10:43:57Z</time>
      </trkpt>
      <trkpt lat="43.29093" lon="5.92212">
        <ele>499.54223632812</ele>
        <time>2012-05-13T10:44:03Z</time>
      </trkpt>
      <trkpt lat="43.29088" lon="5.92224">
        <ele>496.65832519531</ele>
        <time>2012-05-13T10:44:08Z</time>
      </trkpt>
      <trkpt lat="43.29082" lon="5.92238">
        <ele>493.29357910156</ele>
        <time>2012-05-13T10:44:13Z</time>
      </trkpt>
      <trkpt lat="43.29073" lon="5.92258">
        <ele>490.40979003906</ele>
        <time>2012-05-13T10:44:19Z</time>
      </trkpt>
      <trkpt lat="43.29065" lon="5.92271">
        <ele>488.00646972656</ele>
        <time>2012-05-13T10:44:24Z</time>
      </trkpt>
      <trkpt lat="43.2906" lon="5.92296">
        <ele>485.60302734375</ele>
        <time>2012-05-13T10:44:29Z</time>
      </trkpt>
      <trkpt lat="43.29066" lon="5.92341">
        <ele>481.27722167969</ele>
        <time>2012-05-13T10:44:37Z</time>
      </trkpt>
      <trkpt lat="43.29067" lon="5.92345">
        <ele>481.27722167969</ele>
        <time>2012-05-13T10:44:38Z</time>
      </trkpt>
      <trkpt lat="43.29071" lon="5.92356">
        <ele>479.83508300781</ele>
        <time>2012-05-13T10:44:41Z</time>
      </trkpt>
      <trkpt lat="43.29091" lon="5.9238">
        <ele>475.50927734375</ele>
        <time>2012-05-13T10:44:49Z</time>
      </trkpt>
      <trkpt lat="43.29092" lon="5.92383">
        <ele>475.02868652344</ele>
        <time>2012-05-13T10:44:50Z</time>
      </trkpt>
      <trkpt lat="43.29092" lon="5.92385">
        <ele>475.02868652344</ele>
        <time>2012-05-13T10:44:51Z</time>
      </trkpt>
      <trkpt lat="43.29087" lon="5.92394">
        <ele>472.62536621094</ele>
        <time>2012-05-13T10:44:58Z</time>
      </trkpt>
      <trkpt lat="43.29079" lon="5.92391">
        <ele>471.66394042969</ele>
        <time>2012-05-13T10:45:04Z</time>
      </trkpt>
      <trkpt lat="43.29059" lon="5.92405">
        <ele>466.37670898438</ele>
        <time>2012-05-13T10:45:11Z</time>
      </trkpt>
      <trkpt lat="43.29056" lon="5.92406">
        <ele>466.37670898438</ele>
        <time>2012-05-13T10:45:12Z</time>
      </trkpt>
      <trkpt lat="43.29028" lon="5.92412">
        <ele>464.4541015625</ele>
        <time>2012-05-13T10:45:23Z</time>
      </trkpt>
      <trkpt lat="43.29002" lon="5.92414">
        <ele>461.08947753906</ele>
        <time>2012-05-13T10:45:33Z</time>
      </trkpt>
      <trkpt lat="43.2898" lon="5.9243">
        <ele>458.20556640625</ele>
        <time>2012-05-13T10:45:41Z</time>
      </trkpt>
      <trkpt lat="43.28952" lon="5.92454">
        <ele>454.36022949219</ele>
        <time>2012-05-13T10:45:51Z</time>
      </trkpt>
      <trkpt lat="43.28951" lon="5.92457">
        <ele>454.36022949219</ele>
        <time>2012-05-13T10:45:52Z</time>
      </trkpt>
      <trkpt lat="43.28957" lon="5.92467">
        <ele>454.36022949219</ele>
        <time>2012-05-13T10:45:57Z</time>
      </trkpt>
      <trkpt lat="43.28985" lon="5.92488">
        <ele>457.72497558594</ele>
        <time>2012-05-13T10:46:13Z</time>
      </trkpt>
      <trkpt lat="43.29011" lon="5.92531">
        <ele>459.16687011719</ele>
        <time>2012-05-13T10:46:32Z</time>
      </trkpt>
      <trkpt lat="43.29025" lon="5.92568">
        <ele>461.08947753906</ele>
        <time>2012-05-13T10:46:50Z</time>
      </trkpt>
      <trkpt lat="43.29031" lon="5.92582">
        <ele>461.08947753906</ele>
        <time>2012-05-13T10:46:59Z</time>
      </trkpt>
      <trkpt lat="43.29037" lon="5.92593">
        <ele>461.57019042969</ele>
        <time>2012-05-13T10:47:05Z</time>
      </trkpt>
      <trkpt lat="43.29047" lon="5.92624">
        <ele>462.53137207031</ele>
        <time>2012-05-13T10:47:25Z</time>
      </trkpt>
      <trkpt lat="43.29066" lon="5.92666">
        <ele>463.49279785156</ele>
        <time>2012-05-13T10:47:43Z</time>
      </trkpt>
      <trkpt lat="43.29092" lon="5.92719">
        <ele>463.97338867188</ele>
        <time>2012-05-13T10:48:03Z</time>
      </trkpt>
      <trkpt lat="43.29114" lon="5.92764">
        <ele>464.4541015625</ele>
        <time>2012-05-13T10:48:18Z</time>
      </trkpt>
      <trkpt lat="43.2914" lon="5.92819">
        <ele>465.89611816406</ele>
        <time>2012-05-13T10:48:34Z</time>
      </trkpt>
      <trkpt lat="43.29145" lon="5.92878">
        <ele>466.37670898438</ele>
        <time>2012-05-13T10:48:49Z</time>
      </trkpt>
      <trkpt lat="43.29127" lon="5.92934">
        <ele>466.37670898438</ele>
        <time>2012-05-13T10:49:04Z</time>
      </trkpt>
      <trkpt lat="43.29087" lon="5.9295">
        <ele>464.93481445312</ele>
        <time>2012-05-13T10:49:15Z</time>
      </trkpt>
      <trkpt lat="43.29054" lon="5.92963">
        <ele>463.01208496094</ele>
        <time>2012-05-13T10:49:23Z</time>
      </trkpt>
      <trkpt lat="43.29015" lon="5.92985">
        <ele>460.60876464844</ele>
        <time>2012-05-13T10:49:34Z</time>
      </trkpt>
      <trkpt lat="43.29009" lon="5.92983">
        <ele>460.12817382812</ele>
        <time>2012-05-13T10:49:43Z</time>
      </trkpt>
      <trkpt lat="43.2901" lon="5.9298">
        <ele>461.08947753906</ele>
        <time>2012-05-13T10:50:00Z</time>
      </trkpt>
      <trkpt lat="43.29009" lon="5.9298">
        <ele>454.36022949219</ele>
        <time>2012-05-13T10:51:51Z</time>
      </trkpt>
      <trkpt lat="43.29009" lon="5.9298">
        <ele>460.12817382812</ele>
        <time>2012-05-13T10:51:52Z</time>
      </trkpt>
      <trkpt lat="43.29007" lon="5.92982">
        <ele>458.68615722656</ele>
        <time>2012-05-13T10:51:58Z</time>
      </trkpt>
    </trkseg>
  </trk>
</gpx>